<?xml version="1.0" encoding="UTF-8" standalone="no" ?>
<gpx xmlns="http://www.topografix.com/GPX/1/1" xmlns:xsi="http://www.w3.org/2001/XMLSchema-instance" xsi:schemaLocation="http://www.topografix.com/GPX/1/1 http://www.topografix.com/GPX/1/1/gpx.xsd" version="1.1" creator="VisuGPX - https://www.visugpx.com">
  <metadata>
    <name>Tour de l\'Ile St Marguerite Cannes en Stand Up Paddle</name>
    <desc><![CDATA[Tour de l\'Ile St Marguerite Cannes en Stand Up Paddle.]]></desc>
  </metadata>
  <trk>
    <name><![CDATA[Tour de l'Ile St Marguerite Cannes SUP]]></name>
    <trkseg>
      <trkpt lat="43.52208" lon="7.03608">
        <ele>-33.03</ele>
        <time>2014-08-24T06:13:04Z</time>
      </trkpt>
      <trkpt lat="43.52218" lon="7.03599">
        <ele>-31.11</ele>
        <time>2014-08-24T06:13:20Z</time>
      </trkpt>
      <trkpt lat="43.5222" lon="7.03597">
        <ele>-32.55</ele>
        <time>2014-08-24T06:13:23Z</time>
      </trkpt>
      <trkpt lat="43.52221" lon="7.03593">
        <ele>-31.11</ele>
        <time>2014-08-24T06:13:27Z</time>
      </trkpt>
      <trkpt lat="43.52222" lon="7.03586">
        <ele>-27.74</ele>
        <time>2014-08-24T06:13:39Z</time>
      </trkpt>
      <trkpt lat="43.5223" lon="7.03579">
        <ele>-25.34</ele>
        <time>2014-08-24T06:13:57Z</time>
      </trkpt>
      <trkpt lat="43.52237" lon="7.03564">
        <ele>-22.93</ele>
        <time>2014-08-24T06:14:16Z</time>
      </trkpt>
      <trkpt lat="43.52247" lon="7.03551">
        <ele>-21.97</ele>
        <time>2014-08-24T06:14:33Z</time>
      </trkpt>
      <trkpt lat="43.52255" lon="7.03539">
        <ele>-20.05</ele>
        <time>2014-08-24T06:14:51Z</time>
      </trkpt>
      <trkpt lat="43.52262" lon="7.03528">
        <ele>-18.61</ele>
        <time>2014-08-24T06:15:07Z</time>
      </trkpt>
      <trkpt lat="43.52271" lon="7.03515">
        <ele>-17.17</ele>
        <time>2014-08-24T06:15:25Z</time>
      </trkpt>
      <trkpt lat="43.5228" lon="7.035">
        <ele>-15.24</ele>
        <time>2014-08-24T06:15:45Z</time>
      </trkpt>
      <trkpt lat="43.52288" lon="7.03492">
        <ele>-14.76</ele>
        <time>2014-08-24T06:16:00Z</time>
      </trkpt>
      <trkpt lat="43.523" lon="7.03483">
        <ele>-12.84</ele>
        <time>2014-08-24T06:16:16Z</time>
      </trkpt>
      <trkpt lat="43.52308" lon="7.03475">
        <ele>-11.4</ele>
        <time>2014-08-24T06:16:33Z</time>
      </trkpt>
      <trkpt lat="43.52315" lon="7.03464">
        <ele>-10.92</ele>
        <time>2014-08-24T06:16:49Z</time>
      </trkpt>
      <trkpt lat="43.52321" lon="7.0345">
        <ele>-9.96</ele>
        <time>2014-08-24T06:17:07Z</time>
      </trkpt>
      <trkpt lat="43.5233" lon="7.0344">
        <ele>-9</ele>
        <time>2014-08-24T06:17:24Z</time>
      </trkpt>
      <trkpt lat="43.5234" lon="7.03432">
        <ele>-7.55</ele>
        <time>2014-08-24T06:17:42Z</time>
      </trkpt>
      <trkpt lat="43.52346" lon="7.03419">
        <ele>-7.55</ele>
        <time>2014-08-24T06:17:58Z</time>
      </trkpt>
      <trkpt lat="43.52354" lon="7.03409">
        <ele>-6.59</ele>
        <time>2014-08-24T06:18:14Z</time>
      </trkpt>
      <trkpt lat="43.52358" lon="7.03398">
        <ele>-6.59</ele>
        <time>2014-08-24T06:18:28Z</time>
      </trkpt>
      <trkpt lat="43.52367" lon="7.03388">
        <ele>-5.63</ele>
        <time>2014-08-24T06:18:45Z</time>
      </trkpt>
      <trkpt lat="43.52367" lon="7.03373">
        <ele>-5.63</ele>
        <time>2014-08-24T06:19:00Z</time>
      </trkpt>
      <trkpt lat="43.52374" lon="7.03356">
        <ele>-5.63</ele>
        <time>2014-08-24T06:19:20Z</time>
      </trkpt>
      <trkpt lat="43.52376" lon="7.03341">
        <ele>-5.15</ele>
        <time>2014-08-24T06:19:37Z</time>
      </trkpt>
      <trkpt lat="43.5238" lon="7.03326">
        <ele>-6.11</ele>
        <time>2014-08-24T06:19:56Z</time>
      </trkpt>
      <trkpt lat="43.5238" lon="7.03323">
        <ele>-4.67</ele>
        <time>2014-08-24T06:19:58Z</time>
      </trkpt>
      <trkpt lat="43.52385" lon="7.03312">
        <ele>-4.19</ele>
        <time>2014-08-24T06:20:14Z</time>
      </trkpt>
      <trkpt lat="43.52384" lon="7.03299">
        <ele>-4.19</ele>
        <time>2014-08-24T06:20:29Z</time>
      </trkpt>
      <trkpt lat="43.52391" lon="7.03287">
        <ele>-4.19</ele>
        <time>2014-08-24T06:20:47Z</time>
      </trkpt>
      <trkpt lat="43.52391" lon="7.03275">
        <ele>-3.71</ele>
        <time>2014-08-24T06:21:03Z</time>
      </trkpt>
      <trkpt lat="43.52393" lon="7.03262">
        <ele>-3.71</ele>
        <time>2014-08-24T06:21:17Z</time>
      </trkpt>
      <trkpt lat="43.52391" lon="7.03249">
        <ele>-3.23</ele>
        <time>2014-08-24T06:21:34Z</time>
      </trkpt>
      <trkpt lat="43.52389" lon="7.03232">
        <ele>-2.75</ele>
        <time>2014-08-24T06:21:51Z</time>
      </trkpt>
      <trkpt lat="43.52388" lon="7.03221">
        <ele>-2.75</ele>
        <time>2014-08-24T06:22:07Z</time>
      </trkpt>
      <trkpt lat="43.52382" lon="7.0321">
        <ele>-2.27</ele>
        <time>2014-08-24T06:22:22Z</time>
      </trkpt>
      <trkpt lat="43.52371" lon="7.03199">
        <ele>-2.27</ele>
        <time>2014-08-24T06:22:40Z</time>
      </trkpt>
      <trkpt lat="43.52367" lon="7.03195">
        <ele>-1.79</ele>
        <time>2014-08-24T06:22:46Z</time>
      </trkpt>
      <trkpt lat="43.52355" lon="7.03184">
        <ele>-1.79</ele>
        <time>2014-08-24T06:23:02Z</time>
      </trkpt>
      <trkpt lat="43.52345" lon="7.03179">
        <ele>-1.79</ele>
        <time>2014-08-24T06:23:15Z</time>
      </trkpt>
      <trkpt lat="43.52341" lon="7.03177">
        <ele>-1.79</ele>
        <time>2014-08-24T06:23:20Z</time>
      </trkpt>
      <trkpt lat="43.52336" lon="7.03174">
        <ele>-1.79</ele>
        <time>2014-08-24T06:23:26Z</time>
      </trkpt>
      <trkpt lat="43.52326" lon="7.03165">
        <ele>-1.79</ele>
        <time>2014-08-24T06:23:40Z</time>
      </trkpt>
      <trkpt lat="43.52318" lon="7.03157">
        <ele>-1.79</ele>
        <time>2014-08-24T06:23:52Z</time>
      </trkpt>
      <trkpt lat="43.5231" lon="7.03147">
        <ele>-1.3</ele>
        <time>2014-08-24T06:24:06Z</time>
      </trkpt>
      <trkpt lat="43.52304" lon="7.03139">
        <ele>-1.3</ele>
        <time>2014-08-24T06:24:18Z</time>
      </trkpt>
      <trkpt lat="43.52297" lon="7.03128">
        <ele>-1.3</ele>
        <time>2014-08-24T06:24:33Z</time>
      </trkpt>
      <trkpt lat="43.52288" lon="7.03124">
        <ele>-1.3</ele>
        <time>2014-08-24T06:24:49Z</time>
      </trkpt>
      <trkpt lat="43.52276" lon="7.03117">
        <ele>-1.3</ele>
        <time>2014-08-24T06:25:03Z</time>
      </trkpt>
      <trkpt lat="43.52267" lon="7.03109">
        <ele>-0.82</ele>
        <time>2014-08-24T06:25:16Z</time>
      </trkpt>
      <trkpt lat="43.52258" lon="7.03104">
        <ele>-0.34</ele>
        <time>2014-08-24T06:25:28Z</time>
      </trkpt>
      <trkpt lat="43.52247" lon="7.03099">
        <ele>-0.34</ele>
        <time>2014-08-24T06:25:42Z</time>
      </trkpt>
      <trkpt lat="43.52237" lon="7.03099">
        <ele>-0.34</ele>
        <time>2014-08-24T06:25:53Z</time>
      </trkpt>
      <trkpt lat="43.52231" lon="7.03099">
        <ele>-0.34</ele>
        <time>2014-08-24T06:25:59Z</time>
      </trkpt>
      <trkpt lat="43.52225" lon="7.031">
        <ele>-0.34</ele>
        <time>2014-08-24T06:26:07Z</time>
      </trkpt>
      <trkpt lat="43.52223" lon="7.03101">
        <ele>-0.34</ele>
        <time>2014-08-24T06:26:09Z</time>
      </trkpt>
      <trkpt lat="43.52212" lon="7.031">
        <ele>0.14</ele>
        <time>2014-08-24T06:26:21Z</time>
      </trkpt>
      <trkpt lat="43.52201" lon="7.031">
        <ele>0.14</ele>
        <time>2014-08-24T06:26:32Z</time>
      </trkpt>
      <trkpt lat="43.52189" lon="7.031">
        <ele>0.14</ele>
        <time>2014-08-24T06:26:45Z</time>
      </trkpt>
      <trkpt lat="43.52176" lon="7.03099">
        <ele>0.62</ele>
        <time>2014-08-24T06:26:58Z</time>
      </trkpt>
      <trkpt lat="43.52166" lon="7.03102">
        <ele>-0.82</ele>
        <time>2014-08-24T06:27:09Z</time>
      </trkpt>
      <trkpt lat="43.52156" lon="7.03104">
        <ele>-0.82</ele>
        <time>2014-08-24T06:27:19Z</time>
      </trkpt>
      <trkpt lat="43.52153" lon="7.03105">
        <ele>-0.82</ele>
        <time>2014-08-24T06:27:22Z</time>
      </trkpt>
      <trkpt lat="43.52148" lon="7.03106">
        <ele>-0.82</ele>
        <time>2014-08-24T06:27:27Z</time>
      </trkpt>
      <trkpt lat="43.52136" lon="7.03109">
        <ele>-0.82</ele>
        <time>2014-08-24T06:27:39Z</time>
      </trkpt>
      <trkpt lat="43.52133" lon="7.0311">
        <ele>-0.82</ele>
        <time>2014-08-24T06:27:42Z</time>
      </trkpt>
      <trkpt lat="43.52131" lon="7.03111">
        <ele>0.62</ele>
        <time>2014-08-24T06:27:44Z</time>
      </trkpt>
      <trkpt lat="43.52122" lon="7.03114">
        <ele>0.62</ele>
        <time>2014-08-24T06:27:53Z</time>
      </trkpt>
      <trkpt lat="43.52112" lon="7.03116">
        <ele>0.62</ele>
        <time>2014-08-24T06:28:03Z</time>
      </trkpt>
      <trkpt lat="43.52108" lon="7.03118">
        <ele>0.62</ele>
        <time>2014-08-24T06:28:07Z</time>
      </trkpt>
      <trkpt lat="43.52103" lon="7.03126">
        <ele>1.1</ele>
        <time>2014-08-24T06:28:15Z</time>
      </trkpt>
      <trkpt lat="43.52094" lon="7.03142">
        <ele>1.1</ele>
        <time>2014-08-24T06:28:28Z</time>
      </trkpt>
      <trkpt lat="43.52083" lon="7.03154">
        <ele>1.1</ele>
        <time>2014-08-24T06:28:41Z</time>
      </trkpt>
      <trkpt lat="43.52078" lon="7.03166">
        <ele>1.1</ele>
        <time>2014-08-24T06:28:50Z</time>
      </trkpt>
      <trkpt lat="43.52075" lon="7.0317">
        <ele>1.1</ele>
        <time>2014-08-24T06:28:54Z</time>
      </trkpt>
      <trkpt lat="43.52073" lon="7.03172">
        <ele>1.1</ele>
        <time>2014-08-24T06:28:57Z</time>
      </trkpt>
      <trkpt lat="43.52065" lon="7.03177">
        <ele>1.1</ele>
        <time>2014-08-24T06:29:05Z</time>
      </trkpt>
      <trkpt lat="43.52051" lon="7.03184">
        <ele>1.1</ele>
        <time>2014-08-24T06:29:18Z</time>
      </trkpt>
      <trkpt lat="43.52037" lon="7.03189">
        <ele>1.58</ele>
        <time>2014-08-24T06:29:32Z</time>
      </trkpt>
      <trkpt lat="43.52036" lon="7.0319">
        <ele>1.58</ele>
        <time>2014-08-24T06:29:33Z</time>
      </trkpt>
      <trkpt lat="43.52032" lon="7.03196">
        <ele>1.58</ele>
        <time>2014-08-24T06:29:38Z</time>
      </trkpt>
      <trkpt lat="43.52027" lon="7.032">
        <ele>1.58</ele>
        <time>2014-08-24T06:29:43Z</time>
      </trkpt>
      <trkpt lat="43.52021" lon="7.03204">
        <ele>1.58</ele>
        <time>2014-08-24T06:29:48Z</time>
      </trkpt>
      <trkpt lat="43.52014" lon="7.03207">
        <ele>1.58</ele>
        <time>2014-08-24T06:29:55Z</time>
      </trkpt>
      <trkpt lat="43.52003" lon="7.03211">
        <ele>1.58</ele>
        <time>2014-08-24T06:30:06Z</time>
      </trkpt>
      <trkpt lat="43.52001" lon="7.03213">
        <ele>0.14</ele>
        <time>2014-08-24T06:30:08Z</time>
      </trkpt>
      <trkpt lat="43.51993" lon="7.0322">
        <ele>0.14</ele>
        <time>2014-08-24T06:30:16Z</time>
      </trkpt>
      <trkpt lat="43.51979" lon="7.03228">
        <ele>0.14</ele>
        <time>2014-08-24T06:30:30Z</time>
      </trkpt>
      <trkpt lat="43.51974" lon="7.0323">
        <ele>1.58</ele>
        <time>2014-08-24T06:30:35Z</time>
      </trkpt>
      <trkpt lat="43.51971" lon="7.03231">
        <ele>1.58</ele>
        <time>2014-08-24T06:30:38Z</time>
      </trkpt>
      <trkpt lat="43.51956" lon="7.03238">
        <ele>1.1</ele>
        <time>2014-08-24T06:30:52Z</time>
      </trkpt>
      <trkpt lat="43.51955" lon="7.03239">
        <ele>1.1</ele>
        <time>2014-08-24T06:30:53Z</time>
      </trkpt>
      <trkpt lat="43.51951" lon="7.03244">
        <ele>1.1</ele>
        <time>2014-08-24T06:30:58Z</time>
      </trkpt>
      <trkpt lat="43.51947" lon="7.03247">
        <ele>1.58</ele>
        <time>2014-08-24T06:31:02Z</time>
      </trkpt>
      <trkpt lat="43.51935" lon="7.03253">
        <ele>1.58</ele>
        <time>2014-08-24T06:31:12Z</time>
      </trkpt>
      <trkpt lat="43.5192" lon="7.03258">
        <ele>1.58</ele>
        <time>2014-08-24T06:31:25Z</time>
      </trkpt>
      <trkpt lat="43.51912" lon="7.0326">
        <ele>1.58</ele>
        <time>2014-08-24T06:31:32Z</time>
      </trkpt>
      <trkpt lat="43.51905" lon="7.03262">
        <ele>1.58</ele>
        <time>2014-08-24T06:31:38Z</time>
      </trkpt>
      <trkpt lat="43.5189" lon="7.03266">
        <ele>1.58</ele>
        <time>2014-08-24T06:31:51Z</time>
      </trkpt>
      <trkpt lat="43.51888" lon="7.03267">
        <ele>1.58</ele>
        <time>2014-08-24T06:31:53Z</time>
      </trkpt>
      <trkpt lat="43.51885" lon="7.03268">
        <ele>1.58</ele>
        <time>2014-08-24T06:31:56Z</time>
      </trkpt>
      <trkpt lat="43.5188" lon="7.0327">
        <ele>1.58</ele>
        <time>2014-08-24T06:32:00Z</time>
      </trkpt>
      <trkpt lat="43.51874" lon="7.03275">
        <ele>1.58</ele>
        <time>2014-08-24T06:32:07Z</time>
      </trkpt>
      <trkpt lat="43.51865" lon="7.03278">
        <ele>1.58</ele>
        <time>2014-08-24T06:32:15Z</time>
      </trkpt>
      <trkpt lat="43.51858" lon="7.0328">
        <ele>1.58</ele>
        <time>2014-08-24T06:32:21Z</time>
      </trkpt>
      <trkpt lat="43.51849" lon="7.03282">
        <ele>1.58</ele>
        <time>2014-08-24T06:32:28Z</time>
      </trkpt>
      <trkpt lat="43.51838" lon="7.03285">
        <ele>1.58</ele>
        <time>2014-08-24T06:32:38Z</time>
      </trkpt>
      <trkpt lat="43.51831" lon="7.03287">
        <ele>2.06</ele>
        <time>2014-08-24T06:32:44Z</time>
      </trkpt>
      <trkpt lat="43.51825" lon="7.03288">
        <ele>2.06</ele>
        <time>2014-08-24T06:32:49Z</time>
      </trkpt>
      <trkpt lat="43.51812" lon="7.03287">
        <ele>2.06</ele>
        <time>2014-08-24T06:33:02Z</time>
      </trkpt>
      <trkpt lat="43.51806" lon="7.03288">
        <ele>2.06</ele>
        <time>2014-08-24T06:33:08Z</time>
      </trkpt>
      <trkpt lat="43.51802" lon="7.03289">
        <ele>2.06</ele>
        <time>2014-08-24T06:33:11Z</time>
      </trkpt>
      <trkpt lat="43.5179" lon="7.03289">
        <ele>2.06</ele>
        <time>2014-08-24T06:33:22Z</time>
      </trkpt>
      <trkpt lat="43.51785" lon="7.03289">
        <ele>2.06</ele>
        <time>2014-08-24T06:33:26Z</time>
      </trkpt>
      <trkpt lat="43.51771" lon="7.03289">
        <ele>1.1</ele>
        <time>2014-08-24T06:33:39Z</time>
      </trkpt>
      <trkpt lat="43.51762" lon="7.03289">
        <ele>1.1</ele>
        <time>2014-08-24T06:33:47Z</time>
      </trkpt>
      <trkpt lat="43.51755" lon="7.03289">
        <ele>1.1</ele>
        <time>2014-08-24T06:33:53Z</time>
      </trkpt>
      <trkpt lat="43.51744" lon="7.0329">
        <ele>1.1</ele>
        <time>2014-08-24T06:34:03Z</time>
      </trkpt>
      <trkpt lat="43.51734" lon="7.03291">
        <ele>1.1</ele>
        <time>2014-08-24T06:34:11Z</time>
      </trkpt>
      <trkpt lat="43.51729" lon="7.03293">
        <ele>1.1</ele>
        <time>2014-08-24T06:34:16Z</time>
      </trkpt>
      <trkpt lat="43.51714" lon="7.03313">
        <ele>1.1</ele>
        <time>2014-08-24T06:34:32Z</time>
      </trkpt>
      <trkpt lat="43.51706" lon="7.0333">
        <ele>1.1</ele>
        <time>2014-08-24T06:34:44Z</time>
      </trkpt>
      <trkpt lat="43.51701" lon="7.03338">
        <ele>1.1</ele>
        <time>2014-08-24T06:34:50Z</time>
      </trkpt>
      <trkpt lat="43.51689" lon="7.03354">
        <ele>1.1</ele>
        <time>2014-08-24T06:35:03Z</time>
      </trkpt>
      <trkpt lat="43.51683" lon="7.03364">
        <ele>0.62</ele>
        <time>2014-08-24T06:35:10Z</time>
      </trkpt>
      <trkpt lat="43.51679" lon="7.03376">
        <ele>0.62</ele>
        <time>2014-08-24T06:35:18Z</time>
      </trkpt>
      <trkpt lat="43.51674" lon="7.03385">
        <ele>0.62</ele>
        <time>2014-08-24T06:35:25Z</time>
      </trkpt>
      <trkpt lat="43.51667" lon="7.03393">
        <ele>0.62</ele>
        <time>2014-08-24T06:35:33Z</time>
      </trkpt>
      <trkpt lat="43.51664" lon="7.03398">
        <ele>0.62</ele>
        <time>2014-08-24T06:35:37Z</time>
      </trkpt>
      <trkpt lat="43.5166" lon="7.03409">
        <ele>1.58</ele>
        <time>2014-08-24T06:35:45Z</time>
      </trkpt>
      <trkpt lat="43.5166" lon="7.03411">
        <ele>1.58</ele>
        <time>2014-08-24T06:35:46Z</time>
      </trkpt>
      <trkpt lat="43.51657" lon="7.03432">
        <ele>1.58</ele>
        <time>2014-08-24T06:36:00Z</time>
      </trkpt>
      <trkpt lat="43.51654" lon="7.03441">
        <ele>1.58</ele>
        <time>2014-08-24T06:36:07Z</time>
      </trkpt>
      <trkpt lat="43.51647" lon="7.03462">
        <ele>1.58</ele>
        <time>2014-08-24T06:36:22Z</time>
      </trkpt>
      <trkpt lat="43.51646" lon="7.03464">
        <ele>1.58</ele>
        <time>2014-08-24T06:36:24Z</time>
      </trkpt>
      <trkpt lat="43.51644" lon="7.03479">
        <ele>1.58</ele>
        <time>2014-08-24T06:36:34Z</time>
      </trkpt>
      <trkpt lat="43.51643" lon="7.03485">
        <ele>-2.75</ele>
        <time>2014-08-24T06:36:38Z</time>
      </trkpt>
      <trkpt lat="43.51643" lon="7.03486">
        <ele>1.1</ele>
        <time>2014-08-24T06:36:39Z</time>
      </trkpt>
      <trkpt lat="43.51634" lon="7.03505">
        <ele>1.1</ele>
        <time>2014-08-24T06:36:53Z</time>
      </trkpt>
      <trkpt lat="43.51632" lon="7.0351">
        <ele>1.1</ele>
        <time>2014-08-24T06:36:57Z</time>
      </trkpt>
      <trkpt lat="43.51627" lon="7.0353">
        <ele>1.58</ele>
        <time>2014-08-24T06:37:10Z</time>
      </trkpt>
      <trkpt lat="43.51623" lon="7.03541">
        <ele>1.1</ele>
        <time>2014-08-24T06:37:19Z</time>
      </trkpt>
      <trkpt lat="43.51619" lon="7.03551">
        <ele>2.06</ele>
        <time>2014-08-24T06:37:26Z</time>
      </trkpt>
      <trkpt lat="43.51616" lon="7.03573">
        <ele>2.06</ele>
        <time>2014-08-24T06:37:41Z</time>
      </trkpt>
      <trkpt lat="43.51614" lon="7.03579">
        <ele>2.06</ele>
        <time>2014-08-24T06:37:45Z</time>
      </trkpt>
      <trkpt lat="43.51609" lon="7.03599">
        <ele>0.62</ele>
        <time>2014-08-24T06:37:59Z</time>
      </trkpt>
      <trkpt lat="43.51604" lon="7.03619">
        <ele>0.62</ele>
        <time>2014-08-24T06:38:13Z</time>
      </trkpt>
      <trkpt lat="43.51603" lon="7.0364">
        <ele>0.62</ele>
        <time>2014-08-24T06:38:27Z</time>
      </trkpt>
      <trkpt lat="43.51603" lon="7.03642">
        <ele>0.62</ele>
        <time>2014-08-24T06:38:28Z</time>
      </trkpt>
      <trkpt lat="43.51601" lon="7.03651">
        <ele>2.06</ele>
        <time>2014-08-24T06:38:34Z</time>
      </trkpt>
      <trkpt lat="43.51598" lon="7.0366">
        <ele>2.06</ele>
        <time>2014-08-24T06:38:40Z</time>
      </trkpt>
      <trkpt lat="43.51597" lon="7.03683">
        <ele>2.06</ele>
        <time>2014-08-24T06:38:55Z</time>
      </trkpt>
      <trkpt lat="43.51596" lon="7.03684">
        <ele>2.06</ele>
        <time>2014-08-24T06:38:56Z</time>
      </trkpt>
      <trkpt lat="43.51592" lon="7.03704">
        <ele>0.62</ele>
        <time>2014-08-24T06:39:11Z</time>
      </trkpt>
      <trkpt lat="43.51592" lon="7.03707">
        <ele>2.06</ele>
        <time>2014-08-24T06:39:13Z</time>
      </trkpt>
      <trkpt lat="43.51591" lon="7.03708">
        <ele>2.06</ele>
        <time>2014-08-24T06:39:14Z</time>
      </trkpt>
      <trkpt lat="43.51588" lon="7.03727">
        <ele>2.06</ele>
        <time>2014-08-24T06:39:27Z</time>
      </trkpt>
      <trkpt lat="43.51587" lon="7.03742">
        <ele>2.06</ele>
        <time>2014-08-24T06:39:38Z</time>
      </trkpt>
      <trkpt lat="43.51586" lon="7.03751">
        <ele>2.54</ele>
        <time>2014-08-24T06:39:45Z</time>
      </trkpt>
      <trkpt lat="43.51582" lon="7.03764">
        <ele>2.54</ele>
        <time>2014-08-24T06:39:55Z</time>
      </trkpt>
      <trkpt lat="43.51581" lon="7.03766">
        <ele>2.54</ele>
        <time>2014-08-24T06:39:57Z</time>
      </trkpt>
      <trkpt lat="43.51579" lon="7.03789">
        <ele>2.54</ele>
        <time>2014-08-24T06:40:13Z</time>
      </trkpt>
      <trkpt lat="43.51579" lon="7.03804">
        <ele>2.54</ele>
        <time>2014-08-24T06:40:24Z</time>
      </trkpt>
      <trkpt lat="43.51576" lon="7.03826">
        <ele>2.54</ele>
        <time>2014-08-24T06:40:40Z</time>
      </trkpt>
      <trkpt lat="43.51572" lon="7.03845">
        <ele>2.54</ele>
        <time>2014-08-24T06:40:53Z</time>
      </trkpt>
      <trkpt lat="43.51571" lon="7.03867">
        <ele>2.54</ele>
        <time>2014-08-24T06:41:08Z</time>
      </trkpt>
      <trkpt lat="43.5157" lon="7.03884">
        <ele>2.54</ele>
        <time>2014-08-24T06:41:20Z</time>
      </trkpt>
      <trkpt lat="43.51569" lon="7.03892">
        <ele>2.54</ele>
        <time>2014-08-24T06:41:27Z</time>
      </trkpt>
      <trkpt lat="43.51568" lon="7.03894">
        <ele>2.54</ele>
        <time>2014-08-24T06:41:29Z</time>
      </trkpt>
      <trkpt lat="43.51564" lon="7.03913">
        <ele>2.54</ele>
        <time>2014-08-24T06:41:43Z</time>
      </trkpt>
      <trkpt lat="43.51564" lon="7.03915">
        <ele>2.54</ele>
        <time>2014-08-24T06:41:44Z</time>
      </trkpt>
      <trkpt lat="43.51558" lon="7.03936">
        <ele>2.54</ele>
        <time>2014-08-24T06:42:00Z</time>
      </trkpt>
      <trkpt lat="43.51556" lon="7.03949">
        <ele>2.54</ele>
        <time>2014-08-24T06:42:09Z</time>
      </trkpt>
      <trkpt lat="43.51556" lon="7.03955">
        <ele>2.54</ele>
        <time>2014-08-24T06:42:14Z</time>
      </trkpt>
      <trkpt lat="43.51555" lon="7.03958">
        <ele>2.54</ele>
        <time>2014-08-24T06:42:16Z</time>
      </trkpt>
      <trkpt lat="43.51554" lon="7.03964">
        <ele>2.54</ele>
        <time>2014-08-24T06:42:20Z</time>
      </trkpt>
      <trkpt lat="43.51552" lon="7.0397">
        <ele>2.54</ele>
        <time>2014-08-24T06:42:25Z</time>
      </trkpt>
      <trkpt lat="43.51546" lon="7.03987">
        <ele>2.54</ele>
        <time>2014-08-24T06:42:39Z</time>
      </trkpt>
      <trkpt lat="43.51546" lon="7.03994">
        <ele>3.02</ele>
        <time>2014-08-24T06:42:44Z</time>
      </trkpt>
      <trkpt lat="43.51542" lon="7.04009">
        <ele>3.02</ele>
        <time>2014-08-24T06:42:55Z</time>
      </trkpt>
      <trkpt lat="43.51536" lon="7.04022">
        <ele>3.02</ele>
        <time>2014-08-24T06:43:05Z</time>
      </trkpt>
      <trkpt lat="43.51532" lon="7.04034">
        <ele>3.02</ele>
        <time>2014-08-24T06:43:14Z</time>
      </trkpt>
      <trkpt lat="43.5153" lon="7.04049">
        <ele>2.54</ele>
        <time>2014-08-24T06:43:24Z</time>
      </trkpt>
      <trkpt lat="43.5153" lon="7.04055">
        <ele>1.1</ele>
        <time>2014-08-24T06:43:28Z</time>
      </trkpt>
      <trkpt lat="43.5153" lon="7.04056">
        <ele>2.06</ele>
        <time>2014-08-24T06:43:29Z</time>
      </trkpt>
      <trkpt lat="43.51529" lon="7.04058">
        <ele>2.06</ele>
        <time>2014-08-24T06:43:31Z</time>
      </trkpt>
      <trkpt lat="43.51527" lon="7.04064">
        <ele>2.06</ele>
        <time>2014-08-24T06:43:36Z</time>
      </trkpt>
      <trkpt lat="43.51521" lon="7.04084">
        <ele>2.06</ele>
        <time>2014-08-24T06:43:51Z</time>
      </trkpt>
      <trkpt lat="43.5152" lon="7.04099">
        <ele>2.06</ele>
        <time>2014-08-24T06:44:02Z</time>
      </trkpt>
      <trkpt lat="43.51519" lon="7.04106">
        <ele>2.06</ele>
        <time>2014-08-24T06:44:07Z</time>
      </trkpt>
      <trkpt lat="43.51518" lon="7.04108">
        <ele>2.06</ele>
        <time>2014-08-24T06:44:09Z</time>
      </trkpt>
      <trkpt lat="43.51516" lon="7.04113">
        <ele>2.06</ele>
        <time>2014-08-24T06:44:13Z</time>
      </trkpt>
      <trkpt lat="43.51514" lon="7.04133">
        <ele>2.54</ele>
        <time>2014-08-24T06:44:28Z</time>
      </trkpt>
      <trkpt lat="43.51514" lon="7.04135">
        <ele>2.54</ele>
        <time>2014-08-24T06:44:29Z</time>
      </trkpt>
      <trkpt lat="43.51508" lon="7.04153">
        <ele>2.54</ele>
        <time>2014-08-24T06:44:44Z</time>
      </trkpt>
      <trkpt lat="43.51508" lon="7.04155">
        <ele>2.54</ele>
        <time>2014-08-24T06:44:46Z</time>
      </trkpt>
      <trkpt lat="43.51506" lon="7.04171">
        <ele>2.54</ele>
        <time>2014-08-24T06:44:58Z</time>
      </trkpt>
      <trkpt lat="43.51504" lon="7.04176">
        <ele>2.54</ele>
        <time>2014-08-24T06:45:02Z</time>
      </trkpt>
      <trkpt lat="43.51501" lon="7.04187">
        <ele>3.02</ele>
        <time>2014-08-24T06:45:11Z</time>
      </trkpt>
      <trkpt lat="43.51501" lon="7.04198">
        <ele>3.02</ele>
        <time>2014-08-24T06:45:20Z</time>
      </trkpt>
      <trkpt lat="43.51498" lon="7.04207">
        <ele>3.02</ele>
        <time>2014-08-24T06:45:28Z</time>
      </trkpt>
      <trkpt lat="43.51493" lon="7.0422">
        <ele>3.02</ele>
        <time>2014-08-24T06:45:40Z</time>
      </trkpt>
      <trkpt lat="43.51493" lon="7.04233">
        <ele>3.02</ele>
        <time>2014-08-24T06:45:53Z</time>
      </trkpt>
      <trkpt lat="43.5149" lon="7.04251">
        <ele>3.02</ele>
        <time>2014-08-24T06:46:09Z</time>
      </trkpt>
      <trkpt lat="43.51488" lon="7.04267">
        <ele>3.02</ele>
        <time>2014-08-24T06:46:23Z</time>
      </trkpt>
      <trkpt lat="43.51488" lon="7.04271">
        <ele>2.54</ele>
        <time>2014-08-24T06:46:27Z</time>
      </trkpt>
      <trkpt lat="43.51484" lon="7.04283">
        <ele>2.54</ele>
        <time>2014-08-24T06:46:41Z</time>
      </trkpt>
      <trkpt lat="43.51485" lon="7.04297">
        <ele>2.54</ele>
        <time>2014-08-24T06:46:55Z</time>
      </trkpt>
      <trkpt lat="43.51486" lon="7.04302">
        <ele>2.54</ele>
        <time>2014-08-24T06:47:00Z</time>
      </trkpt>
      <trkpt lat="43.51486" lon="7.04312">
        <ele>2.54</ele>
        <time>2014-08-24T06:47:10Z</time>
      </trkpt>
      <trkpt lat="43.51483" lon="7.04324">
        <ele>2.54</ele>
        <time>2014-08-24T06:47:22Z</time>
      </trkpt>
      <trkpt lat="43.51483" lon="7.0433">
        <ele>2.54</ele>
        <time>2014-08-24T06:47:28Z</time>
      </trkpt>
      <trkpt lat="43.51481" lon="7.04341">
        <ele>3.02</ele>
        <time>2014-08-24T06:47:38Z</time>
      </trkpt>
      <trkpt lat="43.51479" lon="7.04347">
        <ele>3.02</ele>
        <time>2014-08-24T06:47:44Z</time>
      </trkpt>
      <trkpt lat="43.5148" lon="7.04359">
        <ele>3.02</ele>
        <time>2014-08-24T06:47:56Z</time>
      </trkpt>
      <trkpt lat="43.51479" lon="7.04374">
        <ele>3.02</ele>
        <time>2014-08-24T06:48:10Z</time>
      </trkpt>
      <trkpt lat="43.51477" lon="7.04388">
        <ele>3.02</ele>
        <time>2014-08-24T06:48:24Z</time>
      </trkpt>
      <trkpt lat="43.51476" lon="7.04401">
        <ele>3.02</ele>
        <time>2014-08-24T06:48:37Z</time>
      </trkpt>
      <trkpt lat="43.51475" lon="7.04412">
        <ele>3.02</ele>
        <time>2014-08-24T06:48:48Z</time>
      </trkpt>
      <trkpt lat="43.51473" lon="7.04426">
        <ele>3.02</ele>
        <time>2014-08-24T06:49:01Z</time>
      </trkpt>
      <trkpt lat="43.51473" lon="7.04428">
        <ele>3.02</ele>
        <time>2014-08-24T06:49:03Z</time>
      </trkpt>
      <trkpt lat="43.51472" lon="7.0443">
        <ele>3.02</ele>
        <time>2014-08-24T06:49:06Z</time>
      </trkpt>
      <trkpt lat="43.51472" lon="7.04443">
        <ele>3.02</ele>
        <time>2014-08-24T06:49:19Z</time>
      </trkpt>
      <trkpt lat="43.51472" lon="7.04446">
        <ele>3.02</ele>
        <time>2014-08-24T06:49:21Z</time>
      </trkpt>
      <trkpt lat="43.51473" lon="7.04456">
        <ele>2.54</ele>
        <time>2014-08-24T06:49:32Z</time>
      </trkpt>
      <trkpt lat="43.51474" lon="7.04467">
        <ele>2.54</ele>
        <time>2014-08-24T06:49:43Z</time>
      </trkpt>
      <trkpt lat="43.51478" lon="7.04479">
        <ele>2.54</ele>
        <time>2014-08-24T06:49:57Z</time>
      </trkpt>
      <trkpt lat="43.51478" lon="7.04492">
        <ele>2.54</ele>
        <time>2014-08-24T06:50:09Z</time>
      </trkpt>
      <trkpt lat="43.51476" lon="7.04506">
        <ele>2.54</ele>
        <time>2014-08-24T06:50:22Z</time>
      </trkpt>
      <trkpt lat="43.51477" lon="7.0452">
        <ele>2.54</ele>
        <time>2014-08-24T06:50:38Z</time>
      </trkpt>
      <trkpt lat="43.51477" lon="7.04528">
        <ele>2.54</ele>
        <time>2014-08-24T06:50:48Z</time>
      </trkpt>
      <trkpt lat="43.51475" lon="7.04539">
        <ele>2.54</ele>
        <time>2014-08-24T06:51:00Z</time>
      </trkpt>
      <trkpt lat="43.51478" lon="7.04549">
        <ele>2.54</ele>
        <time>2014-08-24T06:51:12Z</time>
      </trkpt>
      <trkpt lat="43.51481" lon="7.04558">
        <ele>2.54</ele>
        <time>2014-08-24T06:51:22Z</time>
      </trkpt>
      <trkpt lat="43.51479" lon="7.04571">
        <ele>2.54</ele>
        <time>2014-08-24T06:51:36Z</time>
      </trkpt>
      <trkpt lat="43.51479" lon="7.04573">
        <ele>2.54</ele>
        <time>2014-08-24T06:51:38Z</time>
      </trkpt>
      <trkpt lat="43.5148" lon="7.04584">
        <ele>2.54</ele>
        <time>2014-08-24T06:51:49Z</time>
      </trkpt>
      <trkpt lat="43.51482" lon="7.04595">
        <ele>2.54</ele>
        <time>2014-08-24T06:52:01Z</time>
      </trkpt>
      <trkpt lat="43.51485" lon="7.04605">
        <ele>2.54</ele>
        <time>2014-08-24T06:52:13Z</time>
      </trkpt>
      <trkpt lat="43.51485" lon="7.04615">
        <ele>2.54</ele>
        <time>2014-08-24T06:52:26Z</time>
      </trkpt>
      <trkpt lat="43.51485" lon="7.04626">
        <ele>2.54</ele>
        <time>2014-08-24T06:52:39Z</time>
      </trkpt>
      <trkpt lat="43.51485" lon="7.0463">
        <ele>2.54</ele>
        <time>2014-08-24T06:52:44Z</time>
      </trkpt>
      <trkpt lat="43.51486" lon="7.04639">
        <ele>2.54</ele>
        <time>2014-08-24T06:52:55Z</time>
      </trkpt>
      <trkpt lat="43.51484" lon="7.04648">
        <ele>2.54</ele>
        <time>2014-08-24T06:53:06Z</time>
      </trkpt>
      <trkpt lat="43.51485" lon="7.04659">
        <ele>2.54</ele>
        <time>2014-08-24T06:53:18Z</time>
      </trkpt>
      <trkpt lat="43.5149" lon="7.04669">
        <ele>2.54</ele>
        <time>2014-08-24T06:53:29Z</time>
      </trkpt>
      <trkpt lat="43.51493" lon="7.04676">
        <ele>2.54</ele>
        <time>2014-08-24T06:53:38Z</time>
      </trkpt>
      <trkpt lat="43.51492" lon="7.04687">
        <ele>2.06</ele>
        <time>2014-08-24T06:53:50Z</time>
      </trkpt>
      <trkpt lat="43.51494" lon="7.04697">
        <ele>2.06</ele>
        <time>2014-08-24T06:54:02Z</time>
      </trkpt>
      <trkpt lat="43.51496" lon="7.04707">
        <ele>2.06</ele>
        <time>2014-08-24T06:54:14Z</time>
      </trkpt>
      <trkpt lat="43.51494" lon="7.04716">
        <ele>2.06</ele>
        <time>2014-08-24T06:54:26Z</time>
      </trkpt>
      <trkpt lat="43.51497" lon="7.04728">
        <ele>2.06</ele>
        <time>2014-08-24T06:54:40Z</time>
      </trkpt>
      <trkpt lat="43.51497" lon="7.04738">
        <ele>2.06</ele>
        <time>2014-08-24T06:54:53Z</time>
      </trkpt>
      <trkpt lat="43.51499" lon="7.04747">
        <ele>2.06</ele>
        <time>2014-08-24T06:55:04Z</time>
      </trkpt>
      <trkpt lat="43.515" lon="7.04756">
        <ele>2.06</ele>
        <time>2014-08-24T06:55:15Z</time>
      </trkpt>
      <trkpt lat="43.51504" lon="7.04764">
        <ele>2.06</ele>
        <time>2014-08-24T06:55:27Z</time>
      </trkpt>
      <trkpt lat="43.51505" lon="7.04774">
        <ele>2.06</ele>
        <time>2014-08-24T06:55:39Z</time>
      </trkpt>
      <trkpt lat="43.5151" lon="7.04783">
        <ele>2.06</ele>
        <time>2014-08-24T06:55:51Z</time>
      </trkpt>
      <trkpt lat="43.51515" lon="7.04792">
        <ele>2.06</ele>
        <time>2014-08-24T06:56:04Z</time>
      </trkpt>
      <trkpt lat="43.51518" lon="7.04804">
        <ele>2.06</ele>
        <time>2014-08-24T06:56:16Z</time>
      </trkpt>
      <trkpt lat="43.51522" lon="7.04814">
        <ele>2.06</ele>
        <time>2014-08-24T06:56:28Z</time>
      </trkpt>
      <trkpt lat="43.51525" lon="7.04826">
        <ele>2.06</ele>
        <time>2014-08-24T06:56:42Z</time>
      </trkpt>
      <trkpt lat="43.51528" lon="7.04839">
        <ele>2.06</ele>
        <time>2014-08-24T06:56:55Z</time>
      </trkpt>
      <trkpt lat="43.51531" lon="7.04852">
        <ele>2.06</ele>
        <time>2014-08-24T06:57:09Z</time>
      </trkpt>
      <trkpt lat="43.51534" lon="7.04862">
        <ele>2.06</ele>
        <time>2014-08-24T06:57:18Z</time>
      </trkpt>
      <trkpt lat="43.51538" lon="7.04878">
        <ele>2.06</ele>
        <time>2014-08-24T06:57:33Z</time>
      </trkpt>
      <trkpt lat="43.51546" lon="7.04891">
        <ele>2.06</ele>
        <time>2014-08-24T06:57:48Z</time>
      </trkpt>
      <trkpt lat="43.51547" lon="7.04905">
        <ele>2.06</ele>
        <time>2014-08-24T06:58:00Z</time>
      </trkpt>
      <trkpt lat="43.51547" lon="7.04922">
        <ele>2.06</ele>
        <time>2014-08-24T06:58:15Z</time>
      </trkpt>
      <trkpt lat="43.5155" lon="7.04938">
        <ele>2.06</ele>
        <time>2014-08-24T06:58:28Z</time>
      </trkpt>
      <trkpt lat="43.51551" lon="7.04948">
        <ele>-1.3</ele>
        <time>2014-08-24T06:58:39Z</time>
      </trkpt>
      <trkpt lat="43.51551" lon="7.0495">
        <ele>-3.23</ele>
        <time>2014-08-24T06:58:41Z</time>
      </trkpt>
      <trkpt lat="43.51552" lon="7.04957">
        <ele>-1.79</ele>
        <time>2014-08-24T06:58:57Z</time>
      </trkpt>
      <trkpt lat="43.51552" lon="7.04957">
        <ele>-1.79</ele>
        <time>2014-08-24T06:58:58Z</time>
      </trkpt>
      <trkpt lat="43.51552" lon="7.04961">
        <ele>-1.79</ele>
        <time>2014-08-24T06:59:13Z</time>
      </trkpt>
      <trkpt lat="43.51551" lon="7.04963">
        <ele>-1.79</ele>
        <time>2014-08-24T06:59:29Z</time>
      </trkpt>
      <trkpt lat="43.51549" lon="7.04967">
        <ele>-5.15</ele>
        <time>2014-08-24T06:59:42Z</time>
      </trkpt>
      <trkpt lat="43.51549" lon="7.04967">
        <ele>-3.23</ele>
        <time>2014-08-24T06:59:43Z</time>
      </trkpt>
      <trkpt lat="43.51549" lon="7.04969">
        <ele>-6.59</ele>
        <time>2014-08-24T06:59:49Z</time>
      </trkpt>
      <trkpt lat="43.51549" lon="7.04969">
        <ele>-9</ele>
        <time>2014-08-24T06:59:52Z</time>
      </trkpt>
      <trkpt lat="43.51549" lon="7.0497">
        <ele>0.62</ele>
        <time>2014-08-24T06:59:54Z</time>
      </trkpt>
      <trkpt lat="43.51548" lon="7.0497">
        <ele>1.1</ele>
        <time>2014-08-24T06:59:55Z</time>
      </trkpt>
      <trkpt lat="43.51548" lon="7.0497">
        <ele>2.54</ele>
        <time>2014-08-24T06:59:57Z</time>
      </trkpt>
      <trkpt lat="43.51548" lon="7.04971">
        <ele>2.06</ele>
        <time>2014-08-24T07:00:04Z</time>
      </trkpt>
      <trkpt lat="43.51547" lon="7.04974">
        <ele>2.06</ele>
        <time>2014-08-24T07:00:21Z</time>
      </trkpt>
      <trkpt lat="43.51547" lon="7.04977">
        <ele>2.06</ele>
        <time>2014-08-24T07:00:37Z</time>
      </trkpt>
      <trkpt lat="43.51549" lon="7.04984">
        <ele>2.06</ele>
        <time>2014-08-24T07:00:56Z</time>
      </trkpt>
      <trkpt lat="43.51553" lon="7.04991">
        <ele>2.06</ele>
        <time>2014-08-24T07:01:17Z</time>
      </trkpt>
      <trkpt lat="43.51552" lon="7.04992">
        <ele>2.06</ele>
        <time>2014-08-24T07:01:34Z</time>
      </trkpt>
      <trkpt lat="43.51551" lon="7.04994">
        <ele>2.06</ele>
        <time>2014-08-24T07:01:51Z</time>
      </trkpt>
      <trkpt lat="43.51554" lon="7.04999">
        <ele>2.06</ele>
        <time>2014-08-24T07:02:06Z</time>
      </trkpt>
      <trkpt lat="43.51559" lon="7.05005">
        <ele>2.06</ele>
        <time>2014-08-24T07:02:24Z</time>
      </trkpt>
      <trkpt lat="43.51562" lon="7.05007">
        <ele>2.06</ele>
        <time>2014-08-24T07:02:38Z</time>
      </trkpt>
      <trkpt lat="43.51563" lon="7.05012">
        <ele>2.06</ele>
        <time>2014-08-24T07:02:58Z</time>
      </trkpt>
      <trkpt lat="43.51562" lon="7.05015">
        <ele>2.06</ele>
        <time>2014-08-24T07:03:14Z</time>
      </trkpt>
      <trkpt lat="43.51562" lon="7.05017">
        <ele>2.06</ele>
        <time>2014-08-24T07:03:31Z</time>
      </trkpt>
      <trkpt lat="43.51562" lon="7.05019">
        <ele>2.06</ele>
        <time>2014-08-24T07:03:48Z</time>
      </trkpt>
      <trkpt lat="43.51561" lon="7.05019">
        <ele>2.06</ele>
        <time>2014-08-24T07:04:07Z</time>
      </trkpt>
      <trkpt lat="43.51561" lon="7.05019">
        <ele>2.06</ele>
        <time>2014-08-24T07:04:25Z</time>
      </trkpt>
      <trkpt lat="43.51561" lon="7.05018">
        <ele>2.06</ele>
        <time>2014-08-24T07:04:43Z</time>
      </trkpt>
      <trkpt lat="43.51564" lon="7.05011">
        <ele>2.06</ele>
        <time>2014-08-24T07:04:56Z</time>
      </trkpt>
      <trkpt lat="43.51566" lon="7.05012">
        <ele>1.58</ele>
        <time>2014-08-24T07:05:14Z</time>
      </trkpt>
      <trkpt lat="43.5157" lon="7.05014">
        <ele>1.58</ele>
        <time>2014-08-24T07:05:30Z</time>
      </trkpt>
      <trkpt lat="43.51575" lon="7.05013">
        <ele>1.58</ele>
        <time>2014-08-24T07:05:46Z</time>
      </trkpt>
      <trkpt lat="43.51577" lon="7.05013">
        <ele>1.58</ele>
        <time>2014-08-24T07:06:01Z</time>
      </trkpt>
      <trkpt lat="43.51577" lon="7.05009">
        <ele>1.58</ele>
        <time>2014-08-24T07:06:18Z</time>
      </trkpt>
      <trkpt lat="43.51575" lon="7.05004">
        <ele>1.58</ele>
        <time>2014-08-24T07:06:36Z</time>
      </trkpt>
      <trkpt lat="43.51574" lon="7.05003">
        <ele>1.58</ele>
        <time>2014-08-24T07:06:53Z</time>
      </trkpt>
      <trkpt lat="43.51573" lon="7.05005">
        <ele>1.58</ele>
        <time>2014-08-24T07:07:08Z</time>
      </trkpt>
      <trkpt lat="43.51572" lon="7.05006">
        <ele>1.1</ele>
        <time>2014-08-24T07:07:27Z</time>
      </trkpt>
      <trkpt lat="43.51573" lon="7.05008">
        <ele>1.1</ele>
        <time>2014-08-24T07:07:46Z</time>
      </trkpt>
      <trkpt lat="43.51573" lon="7.0501">
        <ele>1.1</ele>
        <time>2014-08-24T07:08:04Z</time>
      </trkpt>
      <trkpt lat="43.51577" lon="7.0501">
        <ele>1.1</ele>
        <time>2014-08-24T07:08:20Z</time>
      </trkpt>
      <trkpt lat="43.51579" lon="7.05009">
        <ele>0.62</ele>
        <time>2014-08-24T07:08:24Z</time>
      </trkpt>
      <trkpt lat="43.51585" lon="7.04996">
        <ele>0.62</ele>
        <time>2014-08-24T07:08:38Z</time>
      </trkpt>
      <trkpt lat="43.51585" lon="7.04984">
        <ele>0.62</ele>
        <time>2014-08-24T07:08:50Z</time>
      </trkpt>
      <trkpt lat="43.51585" lon="7.04972">
        <ele>0.62</ele>
        <time>2014-08-24T07:09:05Z</time>
      </trkpt>
      <trkpt lat="43.51585" lon="7.04967">
        <ele>0.62</ele>
        <time>2014-08-24T07:09:22Z</time>
      </trkpt>
      <trkpt lat="43.51586" lon="7.04963">
        <ele>0.62</ele>
        <time>2014-08-24T07:09:38Z</time>
      </trkpt>
      <trkpt lat="43.51584" lon="7.04952">
        <ele>0.62</ele>
        <time>2014-08-24T07:09:52Z</time>
      </trkpt>
      <trkpt lat="43.51581" lon="7.0494">
        <ele>0.62</ele>
        <time>2014-08-24T07:10:05Z</time>
      </trkpt>
      <trkpt lat="43.51584" lon="7.04928">
        <ele>0.14</ele>
        <time>2014-08-24T07:10:18Z</time>
      </trkpt>
      <trkpt lat="43.51588" lon="7.04916">
        <ele>0.14</ele>
        <time>2014-08-24T07:10:33Z</time>
      </trkpt>
      <trkpt lat="43.51592" lon="7.04911">
        <ele>0.14</ele>
        <time>2014-08-24T07:10:46Z</time>
      </trkpt>
      <trkpt lat="43.51594" lon="7.04916">
        <ele>0.14</ele>
        <time>2014-08-24T07:10:58Z</time>
      </trkpt>
      <trkpt lat="43.51595" lon="7.04919">
        <ele>0.14</ele>
        <time>2014-08-24T07:11:14Z</time>
      </trkpt>
      <trkpt lat="43.51595" lon="7.04925">
        <ele>0.14</ele>
        <time>2014-08-24T07:11:28Z</time>
      </trkpt>
      <trkpt lat="43.51597" lon="7.04927">
        <ele>0.14</ele>
        <time>2014-08-24T07:11:45Z</time>
      </trkpt>
      <trkpt lat="43.516" lon="7.04928">
        <ele>0.14</ele>
        <time>2014-08-24T07:12:00Z</time>
      </trkpt>
      <trkpt lat="43.51603" lon="7.04927">
        <ele>0.14</ele>
        <time>2014-08-24T07:12:11Z</time>
      </trkpt>
      <trkpt lat="43.51603" lon="7.04928">
        <ele>0.14</ele>
        <time>2014-08-24T07:12:24Z</time>
      </trkpt>
      <trkpt lat="43.51602" lon="7.04929">
        <ele>0.14</ele>
        <time>2014-08-24T07:12:37Z</time>
      </trkpt>
      <trkpt lat="43.51603" lon="7.04928">
        <ele>0.14</ele>
        <time>2014-08-24T07:12:55Z</time>
      </trkpt>
      <trkpt lat="43.51602" lon="7.04928">
        <ele>0.14</ele>
        <time>2014-08-24T07:13:11Z</time>
      </trkpt>
      <trkpt lat="43.51603" lon="7.04929">
        <ele>0.14</ele>
        <time>2014-08-24T07:13:25Z</time>
      </trkpt>
      <trkpt lat="43.51602" lon="7.04929">
        <ele>0.14</ele>
        <time>2014-08-24T07:13:38Z</time>
      </trkpt>
      <trkpt lat="43.51603" lon="7.04929">
        <ele>0.14</ele>
        <time>2014-08-24T07:13:54Z</time>
      </trkpt>
      <trkpt lat="43.51604" lon="7.04928">
        <ele>0.14</ele>
        <time>2014-08-24T07:14:09Z</time>
      </trkpt>
      <trkpt lat="43.51603" lon="7.04928">
        <ele>0.14</ele>
        <time>2014-08-24T07:14:22Z</time>
      </trkpt>
      <trkpt lat="43.51602" lon="7.04928">
        <ele>0.14</ele>
        <time>2014-08-24T07:14:40Z</time>
      </trkpt>
      <trkpt lat="43.51603" lon="7.04929">
        <ele>0.14</ele>
        <time>2014-08-24T07:14:54Z</time>
      </trkpt>
      <trkpt lat="43.51604" lon="7.04929">
        <ele>0.14</ele>
        <time>2014-08-24T07:15:10Z</time>
      </trkpt>
      <trkpt lat="43.51604" lon="7.04928">
        <ele>0.14</ele>
        <time>2014-08-24T07:15:25Z</time>
      </trkpt>
      <trkpt lat="43.51603" lon="7.04929">
        <ele>0.14</ele>
        <time>2014-08-24T07:15:40Z</time>
      </trkpt>
      <trkpt lat="43.51603" lon="7.04929">
        <ele>0.14</ele>
        <time>2014-08-24T07:15:55Z</time>
      </trkpt>
      <trkpt lat="43.51603" lon="7.04929">
        <ele>0.14</ele>
        <time>2014-08-24T07:16:08Z</time>
      </trkpt>
      <trkpt lat="43.51604" lon="7.04929">
        <ele>0.14</ele>
        <time>2014-08-24T07:16:20Z</time>
      </trkpt>
      <trkpt lat="43.51605" lon="7.04928">
        <ele>0.14</ele>
        <time>2014-08-24T07:16:33Z</time>
      </trkpt>
      <trkpt lat="43.51605" lon="7.04928">
        <ele>0.14</ele>
        <time>2014-08-24T07:16:48Z</time>
      </trkpt>
      <trkpt lat="43.51605" lon="7.04929">
        <ele>0.14</ele>
        <time>2014-08-24T07:17:01Z</time>
      </trkpt>
      <trkpt lat="43.51604" lon="7.04929">
        <ele>-3.71</ele>
        <time>2014-08-24T07:17:11Z</time>
      </trkpt>
      <trkpt lat="43.51604" lon="7.0493">
        <ele>-0.34</ele>
        <time>2014-08-24T07:17:12Z</time>
      </trkpt>
      <trkpt lat="43.51605" lon="7.04929">
        <ele>0.14</ele>
        <time>2014-08-24T07:17:14Z</time>
      </trkpt>
      <trkpt lat="43.51604" lon="7.04929">
        <ele>0.62</ele>
        <time>2014-08-24T07:17:28Z</time>
      </trkpt>
      <trkpt lat="43.51605" lon="7.04928">
        <ele>0.62</ele>
        <time>2014-08-24T07:17:44Z</time>
      </trkpt>
      <trkpt lat="43.51604" lon="7.04928">
        <ele>0.62</ele>
        <time>2014-08-24T07:17:58Z</time>
      </trkpt>
      <trkpt lat="43.51602" lon="7.0493">
        <ele>0.62</ele>
        <time>2014-08-24T07:18:12Z</time>
      </trkpt>
      <trkpt lat="43.51599" lon="7.04935">
        <ele>0.62</ele>
        <time>2014-08-24T07:18:26Z</time>
      </trkpt>
      <trkpt lat="43.51589" lon="7.04939">
        <ele>0.62</ele>
        <time>2014-08-24T07:18:41Z</time>
      </trkpt>
      <trkpt lat="43.51585" lon="7.04943">
        <ele>0.62</ele>
        <time>2014-08-24T07:18:57Z</time>
      </trkpt>
      <trkpt lat="43.51585" lon="7.04953">
        <ele>0.62</ele>
        <time>2014-08-24T07:19:11Z</time>
      </trkpt>
      <trkpt lat="43.51587" lon="7.04967">
        <ele>0.62</ele>
        <time>2014-08-24T07:19:28Z</time>
      </trkpt>
      <trkpt lat="43.51589" lon="7.04978">
        <ele>1.1</ele>
        <time>2014-08-24T07:19:47Z</time>
      </trkpt>
      <trkpt lat="43.51589" lon="7.04989">
        <ele>1.1</ele>
        <time>2014-08-24T07:20:01Z</time>
      </trkpt>
      <trkpt lat="43.51586" lon="7.04998">
        <ele>1.1</ele>
        <time>2014-08-24T07:20:10Z</time>
      </trkpt>
      <trkpt lat="43.51581" lon="7.05012">
        <ele>1.1</ele>
        <time>2014-08-24T07:20:31Z</time>
      </trkpt>
      <trkpt lat="43.5158" lon="7.0502">
        <ele>0.62</ele>
        <time>2014-08-24T07:20:48Z</time>
      </trkpt>
      <trkpt lat="43.5158" lon="7.05037">
        <ele>0.62</ele>
        <time>2014-08-24T07:21:04Z</time>
      </trkpt>
      <trkpt lat="43.51581" lon="7.05051">
        <ele>0.62</ele>
        <time>2014-08-24T07:21:18Z</time>
      </trkpt>
      <trkpt lat="43.5158" lon="7.05066">
        <ele>1.1</ele>
        <time>2014-08-24T07:21:33Z</time>
      </trkpt>
      <trkpt lat="43.5158" lon="7.05081">
        <ele>1.1</ele>
        <time>2014-08-24T07:21:48Z</time>
      </trkpt>
      <trkpt lat="43.5158" lon="7.05093">
        <ele>1.1</ele>
        <time>2014-08-24T07:22:02Z</time>
      </trkpt>
      <trkpt lat="43.51581" lon="7.05103">
        <ele>1.1</ele>
        <time>2014-08-24T07:22:13Z</time>
      </trkpt>
      <trkpt lat="43.51577" lon="7.05126">
        <ele>1.1</ele>
        <time>2014-08-24T07:22:32Z</time>
      </trkpt>
      <trkpt lat="43.51573" lon="7.05141">
        <ele>1.1</ele>
        <time>2014-08-24T07:22:46Z</time>
      </trkpt>
      <trkpt lat="43.51574" lon="7.05154">
        <ele>1.1</ele>
        <time>2014-08-24T07:22:58Z</time>
      </trkpt>
      <trkpt lat="43.51571" lon="7.05168">
        <ele>1.1</ele>
        <time>2014-08-24T07:23:10Z</time>
      </trkpt>
      <trkpt lat="43.5157" lon="7.05185">
        <ele>1.1</ele>
        <time>2014-08-24T07:23:26Z</time>
      </trkpt>
      <trkpt lat="43.51568" lon="7.05201">
        <ele>1.1</ele>
        <time>2014-08-24T07:23:40Z</time>
      </trkpt>
      <trkpt lat="43.51568" lon="7.05202">
        <ele>1.1</ele>
        <time>2014-08-24T07:23:41Z</time>
      </trkpt>
      <trkpt lat="43.51565" lon="7.0521">
        <ele>1.1</ele>
        <time>2014-08-24T07:23:48Z</time>
      </trkpt>
      <trkpt lat="43.51564" lon="7.05228">
        <ele>1.1</ele>
        <time>2014-08-24T07:24:03Z</time>
      </trkpt>
      <trkpt lat="43.51564" lon="7.05229">
        <ele>1.1</ele>
        <time>2014-08-24T07:24:04Z</time>
      </trkpt>
      <trkpt lat="43.51561" lon="7.05241">
        <ele>1.1</ele>
        <time>2014-08-24T07:24:14Z</time>
      </trkpt>
      <trkpt lat="43.51561" lon="7.05258">
        <ele>1.1</ele>
        <time>2014-08-24T07:24:29Z</time>
      </trkpt>
      <trkpt lat="43.5156" lon="7.05263">
        <ele>1.1</ele>
        <time>2014-08-24T07:24:33Z</time>
      </trkpt>
      <trkpt lat="43.51556" lon="7.05278">
        <ele>1.1</ele>
        <time>2014-08-24T07:24:47Z</time>
      </trkpt>
      <trkpt lat="43.51557" lon="7.05295">
        <ele>1.1</ele>
        <time>2014-08-24T07:25:01Z</time>
      </trkpt>
      <trkpt lat="43.51557" lon="7.05299">
        <ele>1.1</ele>
        <time>2014-08-24T07:25:04Z</time>
      </trkpt>
      <trkpt lat="43.51553" lon="7.05315">
        <ele>1.1</ele>
        <time>2014-08-24T07:25:18Z</time>
      </trkpt>
      <trkpt lat="43.51551" lon="7.05323">
        <ele>1.1</ele>
        <time>2014-08-24T07:25:25Z</time>
      </trkpt>
      <trkpt lat="43.51549" lon="7.05339">
        <ele>1.1</ele>
        <time>2014-08-24T07:25:39Z</time>
      </trkpt>
      <trkpt lat="43.51542" lon="7.05353">
        <ele>1.1</ele>
        <time>2014-08-24T07:25:53Z</time>
      </trkpt>
      <trkpt lat="43.5154" lon="7.0536">
        <ele>1.1</ele>
        <time>2014-08-24T07:25:59Z</time>
      </trkpt>
      <trkpt lat="43.51541" lon="7.05375">
        <ele>1.1</ele>
        <time>2014-08-24T07:26:11Z</time>
      </trkpt>
      <trkpt lat="43.51537" lon="7.05391">
        <ele>1.1</ele>
        <time>2014-08-24T07:26:24Z</time>
      </trkpt>
      <trkpt lat="43.51529" lon="7.05403">
        <ele>0.62</ele>
        <time>2014-08-24T07:26:37Z</time>
      </trkpt>
      <trkpt lat="43.51527" lon="7.0541">
        <ele>0.62</ele>
        <time>2014-08-24T07:26:43Z</time>
      </trkpt>
      <trkpt lat="43.51527" lon="7.05424">
        <ele>0.62</ele>
        <time>2014-08-24T07:26:55Z</time>
      </trkpt>
      <trkpt lat="43.51522" lon="7.05435">
        <ele>0.62</ele>
        <time>2014-08-24T07:27:05Z</time>
      </trkpt>
      <trkpt lat="43.51515" lon="7.05445">
        <ele>0.62</ele>
        <time>2014-08-24T07:27:16Z</time>
      </trkpt>
      <trkpt lat="43.51513" lon="7.05456">
        <ele>0.62</ele>
        <time>2014-08-24T07:27:25Z</time>
      </trkpt>
      <trkpt lat="43.51514" lon="7.05462">
        <ele>0.62</ele>
        <time>2014-08-24T07:27:30Z</time>
      </trkpt>
      <trkpt lat="43.51512" lon="7.05476">
        <ele>0.62</ele>
        <time>2014-08-24T07:27:41Z</time>
      </trkpt>
      <trkpt lat="43.5151" lon="7.05493">
        <ele>0.62</ele>
        <time>2014-08-24T07:27:55Z</time>
      </trkpt>
      <trkpt lat="43.51509" lon="7.05513">
        <ele>0.62</ele>
        <time>2014-08-24T07:28:10Z</time>
      </trkpt>
      <trkpt lat="43.51505" lon="7.0553">
        <ele>0.62</ele>
        <time>2014-08-24T07:28:25Z</time>
      </trkpt>
      <trkpt lat="43.51503" lon="7.05538">
        <ele>0.62</ele>
        <time>2014-08-24T07:28:32Z</time>
      </trkpt>
      <trkpt lat="43.51504" lon="7.05553">
        <ele>0.62</ele>
        <time>2014-08-24T07:28:45Z</time>
      </trkpt>
      <trkpt lat="43.51504" lon="7.0556">
        <ele>0.62</ele>
        <time>2014-08-24T07:28:51Z</time>
      </trkpt>
      <trkpt lat="43.51499" lon="7.05579">
        <ele>0.62</ele>
        <time>2014-08-24T07:29:06Z</time>
      </trkpt>
      <trkpt lat="43.51499" lon="7.05585">
        <ele>0.62</ele>
        <time>2014-08-24T07:29:11Z</time>
      </trkpt>
      <trkpt lat="43.51498" lon="7.05601">
        <ele>0.62</ele>
        <time>2014-08-24T07:29:25Z</time>
      </trkpt>
      <trkpt lat="43.51494" lon="7.05608">
        <ele>0.62</ele>
        <time>2014-08-24T07:29:33Z</time>
      </trkpt>
      <trkpt lat="43.51492" lon="7.05616">
        <ele>0.62</ele>
        <time>2014-08-24T07:29:40Z</time>
      </trkpt>
      <trkpt lat="43.51493" lon="7.05632">
        <ele>0.62</ele>
        <time>2014-08-24T07:29:53Z</time>
      </trkpt>
      <trkpt lat="43.5149" lon="7.05651">
        <ele>0.62</ele>
        <time>2014-08-24T07:30:08Z</time>
      </trkpt>
      <trkpt lat="43.51486" lon="7.05664">
        <ele>0.62</ele>
        <time>2014-08-24T07:30:19Z</time>
      </trkpt>
      <trkpt lat="43.51486" lon="7.05669">
        <ele>0.62</ele>
        <time>2014-08-24T07:30:23Z</time>
      </trkpt>
      <trkpt lat="43.51486" lon="7.05679">
        <ele>0.62</ele>
        <time>2014-08-24T07:30:30Z</time>
      </trkpt>
      <trkpt lat="43.51481" lon="7.05696">
        <ele>0.62</ele>
        <time>2014-08-24T07:30:44Z</time>
      </trkpt>
      <trkpt lat="43.51479" lon="7.057">
        <ele>0.62</ele>
        <time>2014-08-24T07:30:48Z</time>
      </trkpt>
      <trkpt lat="43.51477" lon="7.05705">
        <ele>0.62</ele>
        <time>2014-08-24T07:30:52Z</time>
      </trkpt>
      <trkpt lat="43.51478" lon="7.05723">
        <ele>0.62</ele>
        <time>2014-08-24T07:31:07Z</time>
      </trkpt>
      <trkpt lat="43.51478" lon="7.05737">
        <ele>0.62</ele>
        <time>2014-08-24T07:31:18Z</time>
      </trkpt>
      <trkpt lat="43.51474" lon="7.05752">
        <ele>0.62</ele>
        <time>2014-08-24T07:31:31Z</time>
      </trkpt>
      <trkpt lat="43.51471" lon="7.05762">
        <ele>0.62</ele>
        <time>2014-08-24T07:31:40Z</time>
      </trkpt>
      <trkpt lat="43.51468" lon="7.05778">
        <ele>0.62</ele>
        <time>2014-08-24T07:31:54Z</time>
      </trkpt>
      <trkpt lat="43.51468" lon="7.05779">
        <ele>0.62</ele>
        <time>2014-08-24T07:31:55Z</time>
      </trkpt>
      <trkpt lat="43.51464" lon="7.05789">
        <ele>0.62</ele>
        <time>2014-08-24T07:32:04Z</time>
      </trkpt>
      <trkpt lat="43.51462" lon="7.05805">
        <ele>0.62</ele>
        <time>2014-08-24T07:32:18Z</time>
      </trkpt>
      <trkpt lat="43.51461" lon="7.05811">
        <ele>0.62</ele>
        <time>2014-08-24T07:32:23Z</time>
      </trkpt>
      <trkpt lat="43.51453" lon="7.05822">
        <ele>0.62</ele>
        <time>2014-08-24T07:32:35Z</time>
      </trkpt>
      <trkpt lat="43.51451" lon="7.05831">
        <ele>0.62</ele>
        <time>2014-08-24T07:32:43Z</time>
      </trkpt>
      <trkpt lat="43.51452" lon="7.05848">
        <ele>0.62</ele>
        <time>2014-08-24T07:32:57Z</time>
      </trkpt>
      <trkpt lat="43.51449" lon="7.05862">
        <ele>0.62</ele>
        <time>2014-08-24T07:33:10Z</time>
      </trkpt>
      <trkpt lat="43.51445" lon="7.05875">
        <ele>0.62</ele>
        <time>2014-08-24T07:33:22Z</time>
      </trkpt>
      <trkpt lat="43.51446" lon="7.05892">
        <ele>0.62</ele>
        <time>2014-08-24T07:33:37Z</time>
      </trkpt>
      <trkpt lat="43.51445" lon="7.05897">
        <ele>0.62</ele>
        <time>2014-08-24T07:33:41Z</time>
      </trkpt>
      <trkpt lat="43.51441" lon="7.05904">
        <ele>0.62</ele>
        <time>2014-08-24T07:33:47Z</time>
      </trkpt>
      <trkpt lat="43.5144" lon="7.05905">
        <ele>0.62</ele>
        <time>2014-08-24T07:33:49Z</time>
      </trkpt>
      <trkpt lat="43.51436" lon="7.0592">
        <ele>0.62</ele>
        <time>2014-08-24T07:34:02Z</time>
      </trkpt>
      <trkpt lat="43.51436" lon="7.05929">
        <ele>0.62</ele>
        <time>2014-08-24T07:34:13Z</time>
      </trkpt>
      <trkpt lat="43.51432" lon="7.05939">
        <ele>0.62</ele>
        <time>2014-08-24T07:34:26Z</time>
      </trkpt>
      <trkpt lat="43.51431" lon="7.05948">
        <ele>0.62</ele>
        <time>2014-08-24T07:34:35Z</time>
      </trkpt>
      <trkpt lat="43.51431" lon="7.05962">
        <ele>0.62</ele>
        <time>2014-08-24T07:34:49Z</time>
      </trkpt>
      <trkpt lat="43.51427" lon="7.05977">
        <ele>0.62</ele>
        <time>2014-08-24T07:35:05Z</time>
      </trkpt>
      <trkpt lat="43.51426" lon="7.0599">
        <ele>0.62</ele>
        <time>2014-08-24T07:35:18Z</time>
      </trkpt>
      <trkpt lat="43.51423" lon="7.05996">
        <ele>0.14</ele>
        <time>2014-08-24T07:35:25Z</time>
      </trkpt>
      <trkpt lat="43.51419" lon="7.06008">
        <ele>0.14</ele>
        <time>2014-08-24T07:35:37Z</time>
      </trkpt>
      <trkpt lat="43.51418" lon="7.06023">
        <ele>0.14</ele>
        <time>2014-08-24T07:35:52Z</time>
      </trkpt>
      <trkpt lat="43.51412" lon="7.06035">
        <ele>0.14</ele>
        <time>2014-08-24T07:36:05Z</time>
      </trkpt>
      <trkpt lat="43.5141" lon="7.06047">
        <ele>0.14</ele>
        <time>2014-08-24T07:36:18Z</time>
      </trkpt>
      <trkpt lat="43.5141" lon="7.06061">
        <ele>0.14</ele>
        <time>2014-08-24T07:36:32Z</time>
      </trkpt>
      <trkpt lat="43.51406" lon="7.06066">
        <ele>0.14</ele>
        <time>2014-08-24T07:36:39Z</time>
      </trkpt>
      <trkpt lat="43.514" lon="7.06079">
        <ele>0.14</ele>
        <time>2014-08-24T07:36:52Z</time>
      </trkpt>
      <trkpt lat="43.51398" lon="7.06091">
        <ele>0.14</ele>
        <time>2014-08-24T07:37:03Z</time>
      </trkpt>
      <trkpt lat="43.51397" lon="7.06101">
        <ele>0.14</ele>
        <time>2014-08-24T07:37:14Z</time>
      </trkpt>
      <trkpt lat="43.51393" lon="7.0611">
        <ele>0.14</ele>
        <time>2014-08-24T07:37:25Z</time>
      </trkpt>
      <trkpt lat="43.5139" lon="7.06122">
        <ele>0.14</ele>
        <time>2014-08-24T07:37:38Z</time>
      </trkpt>
      <trkpt lat="43.5139" lon="7.06133">
        <ele>0.14</ele>
        <time>2014-08-24T07:37:50Z</time>
      </trkpt>
      <trkpt lat="43.51389" lon="7.06143">
        <ele>0.14</ele>
        <time>2014-08-24T07:38:01Z</time>
      </trkpt>
      <trkpt lat="43.51385" lon="7.06154">
        <ele>0.14</ele>
        <time>2014-08-24T07:38:14Z</time>
      </trkpt>
      <trkpt lat="43.51385" lon="7.06167">
        <ele>0.14</ele>
        <time>2014-08-24T07:38:29Z</time>
      </trkpt>
      <trkpt lat="43.51385" lon="7.06178">
        <ele>0.14</ele>
        <time>2014-08-24T07:38:42Z</time>
      </trkpt>
      <trkpt lat="43.5138" lon="7.0619">
        <ele>0.14</ele>
        <time>2014-08-24T07:38:55Z</time>
      </trkpt>
      <trkpt lat="43.51379" lon="7.06193">
        <ele>0.14</ele>
        <time>2014-08-24T07:38:58Z</time>
      </trkpt>
      <trkpt lat="43.51375" lon="7.06207">
        <ele>0.14</ele>
        <time>2014-08-24T07:39:13Z</time>
      </trkpt>
      <trkpt lat="43.51371" lon="7.06217">
        <ele>0.14</ele>
        <time>2014-08-24T07:39:26Z</time>
      </trkpt>
      <trkpt lat="43.51365" lon="7.0623">
        <ele>0.14</ele>
        <time>2014-08-24T07:39:41Z</time>
      </trkpt>
      <trkpt lat="43.51363" lon="7.06242">
        <ele>0.14</ele>
        <time>2014-08-24T07:39:53Z</time>
      </trkpt>
      <trkpt lat="43.51361" lon="7.06252">
        <ele>0.14</ele>
        <time>2014-08-24T07:40:05Z</time>
      </trkpt>
      <trkpt lat="43.51358" lon="7.06262">
        <ele>0.14</ele>
        <time>2014-08-24T07:40:17Z</time>
      </trkpt>
      <trkpt lat="43.51356" lon="7.06272">
        <ele>0.14</ele>
        <time>2014-08-24T07:40:30Z</time>
      </trkpt>
      <trkpt lat="43.51352" lon="7.06282">
        <ele>0.14</ele>
        <time>2014-08-24T07:40:44Z</time>
      </trkpt>
      <trkpt lat="43.51351" lon="7.06292">
        <ele>0.14</ele>
        <time>2014-08-24T07:40:56Z</time>
      </trkpt>
      <trkpt lat="43.51347" lon="7.06301">
        <ele>0.14</ele>
        <time>2014-08-24T07:41:09Z</time>
      </trkpt>
      <trkpt lat="43.51345" lon="7.06312">
        <ele>0.14</ele>
        <time>2014-08-24T07:41:22Z</time>
      </trkpt>
      <trkpt lat="43.51342" lon="7.06323">
        <ele>0.14</ele>
        <time>2014-08-24T07:41:35Z</time>
      </trkpt>
      <trkpt lat="43.5134" lon="7.06332">
        <ele>0.14</ele>
        <time>2014-08-24T07:41:46Z</time>
      </trkpt>
      <trkpt lat="43.51338" lon="7.0634">
        <ele>0.14</ele>
        <time>2014-08-24T07:41:57Z</time>
      </trkpt>
      <trkpt lat="43.51336" lon="7.06343">
        <ele>0.14</ele>
        <time>2014-08-24T07:42:01Z</time>
      </trkpt>
      <trkpt lat="43.51333" lon="7.06354">
        <ele>0.14</ele>
        <time>2014-08-24T07:42:14Z</time>
      </trkpt>
      <trkpt lat="43.5133" lon="7.06362">
        <ele>0.14</ele>
        <time>2014-08-24T07:42:26Z</time>
      </trkpt>
      <trkpt lat="43.51325" lon="7.06369">
        <ele>0.62</ele>
        <time>2014-08-24T07:42:37Z</time>
      </trkpt>
      <trkpt lat="43.51321" lon="7.06372">
        <ele>0.62</ele>
        <time>2014-08-24T07:42:47Z</time>
      </trkpt>
      <trkpt lat="43.51318" lon="7.0638">
        <ele>-0.82</ele>
        <time>2014-08-24T07:42:54Z</time>
      </trkpt>
      <trkpt lat="43.51317" lon="7.06391">
        <ele>0.14</ele>
        <time>2014-08-24T07:43:06Z</time>
      </trkpt>
      <trkpt lat="43.51314" lon="7.06401">
        <ele>0.14</ele>
        <time>2014-08-24T07:43:17Z</time>
      </trkpt>
      <trkpt lat="43.5131" lon="7.0641">
        <ele>0.14</ele>
        <time>2014-08-24T07:43:26Z</time>
      </trkpt>
      <trkpt lat="43.51309" lon="7.06421">
        <ele>0.14</ele>
        <time>2014-08-24T07:43:39Z</time>
      </trkpt>
      <trkpt lat="43.51305" lon="7.06432">
        <ele>0.14</ele>
        <time>2014-08-24T07:43:52Z</time>
      </trkpt>
      <trkpt lat="43.51305" lon="7.06445">
        <ele>0.14</ele>
        <time>2014-08-24T07:44:04Z</time>
      </trkpt>
      <trkpt lat="43.51304" lon="7.06446">
        <ele>-0.82</ele>
        <time>2014-08-24T07:44:06Z</time>
      </trkpt>
      <trkpt lat="43.51303" lon="7.0645">
        <ele>-0.34</ele>
        <time>2014-08-24T07:44:10Z</time>
      </trkpt>
      <trkpt lat="43.51298" lon="7.06462">
        <ele>0.14</ele>
        <time>2014-08-24T07:44:22Z</time>
      </trkpt>
      <trkpt lat="43.51296" lon="7.06472">
        <ele>0.14</ele>
        <time>2014-08-24T07:44:33Z</time>
      </trkpt>
      <trkpt lat="43.51295" lon="7.06481">
        <ele>-0.82</ele>
        <time>2014-08-24T07:44:44Z</time>
      </trkpt>
      <trkpt lat="43.51291" lon="7.06488">
        <ele>0.62</ele>
        <time>2014-08-24T07:44:57Z</time>
      </trkpt>
      <trkpt lat="43.5129" lon="7.06489">
        <ele>0.62</ele>
        <time>2014-08-24T07:44:58Z</time>
      </trkpt>
      <trkpt lat="43.51288" lon="7.06498">
        <ele>-0.82</ele>
        <time>2014-08-24T07:45:09Z</time>
      </trkpt>
      <trkpt lat="43.51286" lon="7.06506">
        <ele>-1.3</ele>
        <time>2014-08-24T07:45:20Z</time>
      </trkpt>
      <trkpt lat="43.51287" lon="7.06507">
        <ele>-1.3</ele>
        <time>2014-08-24T07:45:21Z</time>
      </trkpt>
      <trkpt lat="43.51288" lon="7.06516">
        <ele>-1.3</ele>
        <time>2014-08-24T07:45:34Z</time>
      </trkpt>
      <trkpt lat="43.51286" lon="7.06522">
        <ele>-1.3</ele>
        <time>2014-08-24T07:45:45Z</time>
      </trkpt>
      <trkpt lat="43.51285" lon="7.06526">
        <ele>0.14</ele>
        <time>2014-08-24T07:45:50Z</time>
      </trkpt>
      <trkpt lat="43.51286" lon="7.06537">
        <ele>-1.3</ele>
        <time>2014-08-24T07:46:03Z</time>
      </trkpt>
      <trkpt lat="43.51288" lon="7.06543">
        <ele>0.14</ele>
        <time>2014-08-24T07:46:11Z</time>
      </trkpt>
      <trkpt lat="43.51287" lon="7.06546">
        <ele>-1.3</ele>
        <time>2014-08-24T07:46:15Z</time>
      </trkpt>
      <trkpt lat="43.51287" lon="7.06549">
        <ele>0.14</ele>
        <time>2014-08-24T07:46:18Z</time>
      </trkpt>
      <trkpt lat="43.51286" lon="7.0655">
        <ele>-1.3</ele>
        <time>2014-08-24T07:46:21Z</time>
      </trkpt>
      <trkpt lat="43.51287" lon="7.06555">
        <ele>-1.3</ele>
        <time>2014-08-24T07:46:30Z</time>
      </trkpt>
      <trkpt lat="43.51287" lon="7.06563">
        <ele>-0.34</ele>
        <time>2014-08-24T07:46:41Z</time>
      </trkpt>
      <trkpt lat="43.51288" lon="7.06565">
        <ele>-1.3</ele>
        <time>2014-08-24T07:46:45Z</time>
      </trkpt>
      <trkpt lat="43.51288" lon="7.06573">
        <ele>-1.3</ele>
        <time>2014-08-24T07:46:58Z</time>
      </trkpt>
      <trkpt lat="43.51291" lon="7.06579">
        <ele>-1.3</ele>
        <time>2014-08-24T07:47:09Z</time>
      </trkpt>
      <trkpt lat="43.51291" lon="7.06584">
        <ele>-1.3</ele>
        <time>2014-08-24T07:47:20Z</time>
      </trkpt>
      <trkpt lat="43.51291" lon="7.0659">
        <ele>-0.82</ele>
        <time>2014-08-24T07:47:32Z</time>
      </trkpt>
      <trkpt lat="43.5129" lon="7.06598">
        <ele>-1.79</ele>
        <time>2014-08-24T07:47:42Z</time>
      </trkpt>
      <trkpt lat="43.51291" lon="7.066">
        <ele>-0.82</ele>
        <time>2014-08-24T07:47:45Z</time>
      </trkpt>
      <trkpt lat="43.51293" lon="7.06606">
        <ele>-1.79</ele>
        <time>2014-08-24T07:47:56Z</time>
      </trkpt>
      <trkpt lat="43.51293" lon="7.06615">
        <ele>-1.79</ele>
        <time>2014-08-24T07:48:08Z</time>
      </trkpt>
      <trkpt lat="43.51295" lon="7.06624">
        <ele>-1.79</ele>
        <time>2014-08-24T07:48:19Z</time>
      </trkpt>
      <trkpt lat="43.51299" lon="7.06628">
        <ele>-1.79</ele>
        <time>2014-08-24T07:48:29Z</time>
      </trkpt>
      <trkpt lat="43.51297" lon="7.06635">
        <ele>0.14</ele>
        <time>2014-08-24T07:48:41Z</time>
      </trkpt>
      <trkpt lat="43.51296" lon="7.06636">
        <ele>-1.79</ele>
        <time>2014-08-24T07:48:43Z</time>
      </trkpt>
      <trkpt lat="43.51296" lon="7.06639">
        <ele>-0.82</ele>
        <time>2014-08-24T07:48:46Z</time>
      </trkpt>
      <trkpt lat="43.51296" lon="7.06649">
        <ele>-2.27</ele>
        <time>2014-08-24T07:48:59Z</time>
      </trkpt>
      <trkpt lat="43.51299" lon="7.06652">
        <ele>-0.34</ele>
        <time>2014-08-24T07:49:07Z</time>
      </trkpt>
      <trkpt lat="43.51299" lon="7.06653">
        <ele>-2.75</ele>
        <time>2014-08-24T07:49:09Z</time>
      </trkpt>
      <trkpt lat="43.513" lon="7.06656">
        <ele>0.14</ele>
        <time>2014-08-24T07:49:12Z</time>
      </trkpt>
      <trkpt lat="43.51299" lon="7.0666">
        <ele>-0.34</ele>
        <time>2014-08-24T07:49:17Z</time>
      </trkpt>
      <trkpt lat="43.51299" lon="7.06666">
        <ele>-0.82</ele>
        <time>2014-08-24T07:49:25Z</time>
      </trkpt>
      <trkpt lat="43.51301" lon="7.06672">
        <ele>-2.27</ele>
        <time>2014-08-24T07:49:35Z</time>
      </trkpt>
      <trkpt lat="43.51302" lon="7.06674">
        <ele>-1.3</ele>
        <time>2014-08-24T07:49:38Z</time>
      </trkpt>
      <trkpt lat="43.51301" lon="7.06678">
        <ele>-0.82</ele>
        <time>2014-08-24T07:49:44Z</time>
      </trkpt>
      <trkpt lat="43.51302" lon="7.0668">
        <ele>-2.27</ele>
        <time>2014-08-24T07:49:47Z</time>
      </trkpt>
      <trkpt lat="43.51306" lon="7.06684">
        <ele>-0.82</ele>
        <time>2014-08-24T07:49:59Z</time>
      </trkpt>
      <trkpt lat="43.51306" lon="7.06685">
        <ele>-2.27</ele>
        <time>2014-08-24T07:50:01Z</time>
      </trkpt>
      <trkpt lat="43.51309" lon="7.06693">
        <ele>-2.27</ele>
        <time>2014-08-24T07:50:13Z</time>
      </trkpt>
      <trkpt lat="43.51308" lon="7.067">
        <ele>-2.75</ele>
        <time>2014-08-24T07:50:22Z</time>
      </trkpt>
      <trkpt lat="43.51311" lon="7.06707">
        <ele>-2.27</ele>
        <time>2014-08-24T07:50:33Z</time>
      </trkpt>
      <trkpt lat="43.51313" lon="7.06708">
        <ele>-0.82</ele>
        <time>2014-08-24T07:50:38Z</time>
      </trkpt>
      <trkpt lat="43.51313" lon="7.06708">
        <ele>-2.75</ele>
        <time>2014-08-24T07:50:41Z</time>
      </trkpt>
      <trkpt lat="43.51314" lon="7.06708">
        <ele>-1.3</ele>
        <time>2014-08-24T07:50:43Z</time>
      </trkpt>
      <trkpt lat="43.51315" lon="7.06709">
        <ele>-2.27</ele>
        <time>2014-08-24T07:50:46Z</time>
      </trkpt>
      <trkpt lat="43.51318" lon="7.06717">
        <ele>-2.27</ele>
        <time>2014-08-24T07:50:59Z</time>
      </trkpt>
      <trkpt lat="43.5132" lon="7.06721">
        <ele>-2.75</ele>
        <time>2014-08-24T07:51:12Z</time>
      </trkpt>
      <trkpt lat="43.5132" lon="7.06722">
        <ele>-2.75</ele>
        <time>2014-08-24T07:51:13Z</time>
      </trkpt>
      <trkpt lat="43.51321" lon="7.06722">
        <ele>-1.3</ele>
        <time>2014-08-24T07:51:15Z</time>
      </trkpt>
      <trkpt lat="43.51322" lon="7.06729">
        <ele>-1.3</ele>
        <time>2014-08-24T07:51:25Z</time>
      </trkpt>
      <trkpt lat="43.51323" lon="7.06732">
        <ele>-2.75</ele>
        <time>2014-08-24T07:51:29Z</time>
      </trkpt>
      <trkpt lat="43.51324" lon="7.06734">
        <ele>-1.3</ele>
        <time>2014-08-24T07:51:33Z</time>
      </trkpt>
      <trkpt lat="43.51324" lon="7.06735">
        <ele>-2.75</ele>
        <time>2014-08-24T07:51:35Z</time>
      </trkpt>
      <trkpt lat="43.51327" lon="7.06737">
        <ele>-1.3</ele>
        <time>2014-08-24T07:51:42Z</time>
      </trkpt>
      <trkpt lat="43.5133" lon="7.06744">
        <ele>-1.3</ele>
        <time>2014-08-24T07:51:55Z</time>
      </trkpt>
      <trkpt lat="43.51335" lon="7.06748">
        <ele>-1.3</ele>
        <time>2014-08-24T07:52:08Z</time>
      </trkpt>
      <trkpt lat="43.51336" lon="7.06749">
        <ele>-2.75</ele>
        <time>2014-08-24T07:52:10Z</time>
      </trkpt>
      <trkpt lat="43.51338" lon="7.06753">
        <ele>-1.3</ele>
        <time>2014-08-24T07:52:15Z</time>
      </trkpt>
      <trkpt lat="43.51339" lon="7.06758">
        <ele>-2.75</ele>
        <time>2014-08-24T07:52:23Z</time>
      </trkpt>
      <trkpt lat="43.5134" lon="7.0676">
        <ele>-1.3</ele>
        <time>2014-08-24T07:52:26Z</time>
      </trkpt>
      <trkpt lat="43.5134" lon="7.06761">
        <ele>-2.75</ele>
        <time>2014-08-24T07:52:28Z</time>
      </trkpt>
      <trkpt lat="43.51344" lon="7.06766">
        <ele>-1.79</ele>
        <time>2014-08-24T07:52:41Z</time>
      </trkpt>
      <trkpt lat="43.51346" lon="7.0677">
        <ele>-3.23</ele>
        <time>2014-08-24T07:52:46Z</time>
      </trkpt>
      <trkpt lat="43.51346" lon="7.06772">
        <ele>-1.79</ele>
        <time>2014-08-24T07:52:48Z</time>
      </trkpt>
      <trkpt lat="43.51346" lon="7.06774">
        <ele>-3.23</ele>
        <time>2014-08-24T07:52:51Z</time>
      </trkpt>
      <trkpt lat="43.51348" lon="7.06776">
        <ele>-1.3</ele>
        <time>2014-08-24T07:52:54Z</time>
      </trkpt>
      <trkpt lat="43.5135" lon="7.06778">
        <ele>-2.75</ele>
        <time>2014-08-24T07:52:59Z</time>
      </trkpt>
      <trkpt lat="43.51351" lon="7.06778">
        <ele>-0.82</ele>
        <time>2014-08-24T07:53:02Z</time>
      </trkpt>
      <trkpt lat="43.51352" lon="7.06778">
        <ele>-2.75</ele>
        <time>2014-08-24T07:53:04Z</time>
      </trkpt>
      <trkpt lat="43.51355" lon="7.06782">
        <ele>-1.79</ele>
        <time>2014-08-24T07:53:11Z</time>
      </trkpt>
      <trkpt lat="43.51358" lon="7.06791">
        <ele>-1.79</ele>
        <time>2014-08-24T07:53:25Z</time>
      </trkpt>
      <trkpt lat="43.51362" lon="7.06793">
        <ele>-1.79</ele>
        <time>2014-08-24T07:53:35Z</time>
      </trkpt>
      <trkpt lat="43.51363" lon="7.06797">
        <ele>-3.23</ele>
        <time>2014-08-24T07:53:42Z</time>
      </trkpt>
      <trkpt lat="43.51363" lon="7.068">
        <ele>-1.3</ele>
        <time>2014-08-24T07:53:45Z</time>
      </trkpt>
      <trkpt lat="43.51363" lon="7.06802">
        <ele>-2.75</ele>
        <time>2014-08-24T07:53:47Z</time>
      </trkpt>
      <trkpt lat="43.51367" lon="7.06809">
        <ele>-1.79</ele>
        <time>2014-08-24T07:53:59Z</time>
      </trkpt>
      <trkpt lat="43.5137" lon="7.06814">
        <ele>-3.23</ele>
        <time>2014-08-24T07:54:09Z</time>
      </trkpt>
      <trkpt lat="43.51375" lon="7.06819">
        <ele>-2.75</ele>
        <time>2014-08-24T07:54:21Z</time>
      </trkpt>
      <trkpt lat="43.5138" lon="7.06823">
        <ele>-3.23</ele>
        <time>2014-08-24T07:54:31Z</time>
      </trkpt>
      <trkpt lat="43.51383" lon="7.06831">
        <ele>-2.27</ele>
        <time>2014-08-24T07:54:42Z</time>
      </trkpt>
      <trkpt lat="43.51386" lon="7.06834">
        <ele>-1.79</ele>
        <time>2014-08-24T07:54:54Z</time>
      </trkpt>
      <trkpt lat="43.51388" lon="7.06838">
        <ele>-3.71</ele>
        <time>2014-08-24T07:55:05Z</time>
      </trkpt>
      <trkpt lat="43.51389" lon="7.06838">
        <ele>-3.71</ele>
        <time>2014-08-24T07:55:06Z</time>
      </trkpt>
      <trkpt lat="43.51389" lon="7.06839">
        <ele>-2.27</ele>
        <time>2014-08-24T07:55:09Z</time>
      </trkpt>
      <trkpt lat="43.5139" lon="7.06842">
        <ele>-1.79</ele>
        <time>2014-08-24T07:55:14Z</time>
      </trkpt>
      <trkpt lat="43.5139" lon="7.06843">
        <ele>-3.23</ele>
        <time>2014-08-24T07:55:16Z</time>
      </trkpt>
      <trkpt lat="43.51395" lon="7.06846">
        <ele>-3.23</ele>
        <time>2014-08-24T07:55:27Z</time>
      </trkpt>
      <trkpt lat="43.51396" lon="7.06847">
        <ele>-1.79</ele>
        <time>2014-08-24T07:55:30Z</time>
      </trkpt>
      <trkpt lat="43.51396" lon="7.06848">
        <ele>-3.23</ele>
        <time>2014-08-24T07:55:32Z</time>
      </trkpt>
      <trkpt lat="43.51401" lon="7.06856">
        <ele>-3.23</ele>
        <time>2014-08-24T07:55:45Z</time>
      </trkpt>
      <trkpt lat="43.51405" lon="7.06861">
        <ele>-1.79</ele>
        <time>2014-08-24T07:55:54Z</time>
      </trkpt>
      <trkpt lat="43.51406" lon="7.06861">
        <ele>-3.23</ele>
        <time>2014-08-24T07:55:57Z</time>
      </trkpt>
      <trkpt lat="43.51407" lon="7.06862">
        <ele>-2.27</ele>
        <time>2014-08-24T07:56:00Z</time>
      </trkpt>
      <trkpt lat="43.5141" lon="7.06865">
        <ele>-2.27</ele>
        <time>2014-08-24T07:56:13Z</time>
      </trkpt>
      <trkpt lat="43.51415" lon="7.06866">
        <ele>-3.23</ele>
        <time>2014-08-24T07:56:25Z</time>
      </trkpt>
      <trkpt lat="43.51416" lon="7.06866">
        <ele>-3.23</ele>
        <time>2014-08-24T07:56:26Z</time>
      </trkpt>
      <trkpt lat="43.51417" lon="7.06866">
        <ele>-2.27</ele>
        <time>2014-08-24T07:56:28Z</time>
      </trkpt>
      <trkpt lat="43.5142" lon="7.06869">
        <ele>-2.27</ele>
        <time>2014-08-24T07:56:40Z</time>
      </trkpt>
      <trkpt lat="43.51423" lon="7.06871">
        <ele>-2.27</ele>
        <time>2014-08-24T07:56:51Z</time>
      </trkpt>
      <trkpt lat="43.51427" lon="7.06875">
        <ele>-3.23</ele>
        <time>2014-08-24T07:57:02Z</time>
      </trkpt>
      <trkpt lat="43.51429" lon="7.06878">
        <ele>-1.79</ele>
        <time>2014-08-24T07:57:07Z</time>
      </trkpt>
      <trkpt lat="43.5143" lon="7.06879">
        <ele>-3.23</ele>
        <time>2014-08-24T07:57:09Z</time>
      </trkpt>
      <trkpt lat="43.51433" lon="7.06883">
        <ele>-1.79</ele>
        <time>2014-08-24T07:57:18Z</time>
      </trkpt>
      <trkpt lat="43.51433" lon="7.06884">
        <ele>-3.23</ele>
        <time>2014-08-24T07:57:20Z</time>
      </trkpt>
      <trkpt lat="43.51434" lon="7.06885">
        <ele>-2.27</ele>
        <time>2014-08-24T07:57:22Z</time>
      </trkpt>
      <trkpt lat="43.5144" lon="7.06885">
        <ele>-2.27</ele>
        <time>2014-08-24T07:57:33Z</time>
      </trkpt>
      <trkpt lat="43.51444" lon="7.06882">
        <ele>-2.27</ele>
        <time>2014-08-24T07:57:44Z</time>
      </trkpt>
      <trkpt lat="43.51448" lon="7.06882">
        <ele>-1.79</ele>
        <time>2014-08-24T07:57:54Z</time>
      </trkpt>
      <trkpt lat="43.5145" lon="7.06883">
        <ele>-3.23</ele>
        <time>2014-08-24T07:57:57Z</time>
      </trkpt>
      <trkpt lat="43.51456" lon="7.06886">
        <ele>-3.23</ele>
        <time>2014-08-24T07:58:09Z</time>
      </trkpt>
      <trkpt lat="43.51462" lon="7.06889">
        <ele>-3.23</ele>
        <time>2014-08-24T07:58:20Z</time>
      </trkpt>
      <trkpt lat="43.51463" lon="7.0689">
        <ele>-1.79</ele>
        <time>2014-08-24T07:58:23Z</time>
      </trkpt>
      <trkpt lat="43.51464" lon="7.0689">
        <ele>-2.75</ele>
        <time>2014-08-24T07:58:26Z</time>
      </trkpt>
      <trkpt lat="43.5147" lon="7.06895">
        <ele>-3.23</ele>
        <time>2014-08-24T07:58:40Z</time>
      </trkpt>
      <trkpt lat="43.51471" lon="7.06895">
        <ele>-3.23</ele>
        <time>2014-08-24T07:58:41Z</time>
      </trkpt>
      <trkpt lat="43.51472" lon="7.06894">
        <ele>-1.79</ele>
        <time>2014-08-24T07:58:44Z</time>
      </trkpt>
      <trkpt lat="43.51474" lon="7.069">
        <ele>-2.27</ele>
        <time>2014-08-24T07:58:57Z</time>
      </trkpt>
      <trkpt lat="43.51477" lon="7.06906">
        <ele>-3.23</ele>
        <time>2014-08-24T07:59:07Z</time>
      </trkpt>
      <trkpt lat="43.51479" lon="7.06907">
        <ele>-1.79</ele>
        <time>2014-08-24T07:59:10Z</time>
      </trkpt>
      <trkpt lat="43.51483" lon="7.0691">
        <ele>-3.23</ele>
        <time>2014-08-24T07:59:22Z</time>
      </trkpt>
      <trkpt lat="43.51484" lon="7.06913">
        <ele>-3.23</ele>
        <time>2014-08-24T07:59:28Z</time>
      </trkpt>
      <trkpt lat="43.51489" lon="7.06918">
        <ele>-3.23</ele>
        <time>2014-08-24T07:59:40Z</time>
      </trkpt>
      <trkpt lat="43.51492" lon="7.06923">
        <ele>-1.79</ele>
        <time>2014-08-24T07:59:50Z</time>
      </trkpt>
      <trkpt lat="43.51496" lon="7.0693">
        <ele>-2.27</ele>
        <time>2014-08-24T08:00:04Z</time>
      </trkpt>
      <trkpt lat="43.515" lon="7.06938">
        <ele>-1.79</ele>
        <time>2014-08-24T08:00:17Z</time>
      </trkpt>
      <trkpt lat="43.51502" lon="7.06945">
        <ele>-1.79</ele>
        <time>2014-08-24T08:00:28Z</time>
      </trkpt>
      <trkpt lat="43.51507" lon="7.0695">
        <ele>-1.79</ele>
        <time>2014-08-24T08:00:41Z</time>
      </trkpt>
      <trkpt lat="43.51511" lon="7.06957">
        <ele>-1.79</ele>
        <time>2014-08-24T08:00:55Z</time>
      </trkpt>
      <trkpt lat="43.51514" lon="7.06959">
        <ele>-1.79</ele>
        <time>2014-08-24T08:01:08Z</time>
      </trkpt>
      <trkpt lat="43.51519" lon="7.06966">
        <ele>-1.79</ele>
        <time>2014-08-24T08:01:22Z</time>
      </trkpt>
      <trkpt lat="43.51524" lon="7.0697">
        <ele>-1.79</ele>
        <time>2014-08-24T08:01:35Z</time>
      </trkpt>
      <trkpt lat="43.51526" lon="7.06978">
        <ele>-1.79</ele>
        <time>2014-08-24T08:01:47Z</time>
      </trkpt>
      <trkpt lat="43.51528" lon="7.06979">
        <ele>-1.79</ele>
        <time>2014-08-24T08:01:51Z</time>
      </trkpt>
      <trkpt lat="43.51535" lon="7.06984">
        <ele>-3.23</ele>
        <time>2014-08-24T08:02:03Z</time>
      </trkpt>
      <trkpt lat="43.5154" lon="7.06992">
        <ele>-3.23</ele>
        <time>2014-08-24T08:02:18Z</time>
      </trkpt>
      <trkpt lat="43.51542" lon="7.06992">
        <ele>-1.79</ele>
        <time>2014-08-24T08:02:21Z</time>
      </trkpt>
      <trkpt lat="43.51543" lon="7.06993">
        <ele>-3.23</ele>
        <time>2014-08-24T08:02:24Z</time>
      </trkpt>
      <trkpt lat="43.51545" lon="7.06994">
        <ele>-1.79</ele>
        <time>2014-08-24T08:02:27Z</time>
      </trkpt>
      <trkpt lat="43.51546" lon="7.06995">
        <ele>-3.23</ele>
        <time>2014-08-24T08:02:30Z</time>
      </trkpt>
      <trkpt lat="43.51549" lon="7.06997">
        <ele>-1.79</ele>
        <time>2014-08-24T08:02:33Z</time>
      </trkpt>
      <trkpt lat="43.51549" lon="7.06998">
        <ele>-2.75</ele>
        <time>2014-08-24T08:02:35Z</time>
      </trkpt>
      <trkpt lat="43.51554" lon="7.07005">
        <ele>-2.27</ele>
        <time>2014-08-24T08:02:49Z</time>
      </trkpt>
      <trkpt lat="43.5156" lon="7.07009">
        <ele>-2.27</ele>
        <time>2014-08-24T08:03:01Z</time>
      </trkpt>
      <trkpt lat="43.51566" lon="7.07012">
        <ele>-2.27</ele>
        <time>2014-08-24T08:03:14Z</time>
      </trkpt>
      <trkpt lat="43.5157" lon="7.07015">
        <ele>-2.27</ele>
        <time>2014-08-24T08:03:21Z</time>
      </trkpt>
      <trkpt lat="43.51575" lon="7.07021">
        <ele>-3.23</ele>
        <time>2014-08-24T08:03:34Z</time>
      </trkpt>
      <trkpt lat="43.5158" lon="7.07023">
        <ele>-3.23</ele>
        <time>2014-08-24T08:03:46Z</time>
      </trkpt>
      <trkpt lat="43.51584" lon="7.07027">
        <ele>-3.23</ele>
        <time>2014-08-24T08:03:58Z</time>
      </trkpt>
      <trkpt lat="43.5159" lon="7.07032">
        <ele>-3.23</ele>
        <time>2014-08-24T08:04:09Z</time>
      </trkpt>
      <trkpt lat="43.51597" lon="7.07039">
        <ele>-3.23</ele>
        <time>2014-08-24T08:04:25Z</time>
      </trkpt>
      <trkpt lat="43.51604" lon="7.07044">
        <ele>-3.23</ele>
        <time>2014-08-24T08:04:38Z</time>
      </trkpt>
      <trkpt lat="43.51609" lon="7.0705">
        <ele>-3.23</ele>
        <time>2014-08-24T08:04:52Z</time>
      </trkpt>
      <trkpt lat="43.51614" lon="7.07054">
        <ele>-3.23</ele>
        <time>2014-08-24T08:05:05Z</time>
      </trkpt>
      <trkpt lat="43.51621" lon="7.0706">
        <ele>-2.75</ele>
        <time>2014-08-24T08:05:19Z</time>
      </trkpt>
      <trkpt lat="43.51628" lon="7.07063">
        <ele>-2.75</ele>
        <time>2014-08-24T08:05:33Z</time>
      </trkpt>
      <trkpt lat="43.51634" lon="7.07068">
        <ele>-2.75</ele>
        <time>2014-08-24T08:05:47Z</time>
      </trkpt>
      <trkpt lat="43.51641" lon="7.0707">
        <ele>-2.75</ele>
        <time>2014-08-24T08:06:00Z</time>
      </trkpt>
      <trkpt lat="43.5165" lon="7.07069">
        <ele>-1.79</ele>
        <time>2014-08-24T08:06:13Z</time>
      </trkpt>
      <trkpt lat="43.51659" lon="7.07078">
        <ele>-2.75</ele>
        <time>2014-08-24T08:06:28Z</time>
      </trkpt>
      <trkpt lat="43.51667" lon="7.07082">
        <ele>-2.75</ele>
        <time>2014-08-24T08:06:43Z</time>
      </trkpt>
      <trkpt lat="43.51674" lon="7.07088">
        <ele>-2.75</ele>
        <time>2014-08-24T08:06:57Z</time>
      </trkpt>
      <trkpt lat="43.51683" lon="7.07091">
        <ele>-2.75</ele>
        <time>2014-08-24T08:07:09Z</time>
      </trkpt>
      <trkpt lat="43.51692" lon="7.07099">
        <ele>-2.75</ele>
        <time>2014-08-24T08:07:22Z</time>
      </trkpt>
      <trkpt lat="43.517" lon="7.07102">
        <ele>-2.75</ele>
        <time>2014-08-24T08:07:34Z</time>
      </trkpt>
      <trkpt lat="43.51709" lon="7.07102">
        <ele>-2.75</ele>
        <time>2014-08-24T08:07:49Z</time>
      </trkpt>
      <trkpt lat="43.51715" lon="7.07108">
        <ele>-2.75</ele>
        <time>2014-08-24T08:08:02Z</time>
      </trkpt>
      <trkpt lat="43.5172" lon="7.0711">
        <ele>-2.75</ele>
        <time>2014-08-24T08:08:12Z</time>
      </trkpt>
      <trkpt lat="43.51729" lon="7.07113">
        <ele>-2.75</ele>
        <time>2014-08-24T08:08:25Z</time>
      </trkpt>
      <trkpt lat="43.51737" lon="7.07117">
        <ele>-2.75</ele>
        <time>2014-08-24T08:08:40Z</time>
      </trkpt>
      <trkpt lat="43.51744" lon="7.07119">
        <ele>-2.75</ele>
        <time>2014-08-24T08:08:53Z</time>
      </trkpt>
      <trkpt lat="43.51745" lon="7.07118">
        <ele>-2.75</ele>
        <time>2014-08-24T08:08:54Z</time>
      </trkpt>
      <trkpt lat="43.51752" lon="7.0711">
        <ele>-2.75</ele>
        <time>2014-08-24T08:09:04Z</time>
      </trkpt>
      <trkpt lat="43.51755" lon="7.07106">
        <ele>-2.75</ele>
        <time>2014-08-24T08:09:09Z</time>
      </trkpt>
      <trkpt lat="43.51763" lon="7.07101">
        <ele>-2.75</ele>
        <time>2014-08-24T08:09:18Z</time>
      </trkpt>
      <trkpt lat="43.51769" lon="7.07094">
        <ele>-2.75</ele>
        <time>2014-08-24T08:09:27Z</time>
      </trkpt>
      <trkpt lat="43.51772" lon="7.07084">
        <ele>-2.75</ele>
        <time>2014-08-24T08:09:35Z</time>
      </trkpt>
      <trkpt lat="43.51778" lon="7.07071">
        <ele>-2.75</ele>
        <time>2014-08-24T08:09:46Z</time>
      </trkpt>
      <trkpt lat="43.51779" lon="7.07069">
        <ele>-2.75</ele>
        <time>2014-08-24T08:09:47Z</time>
      </trkpt>
      <trkpt lat="43.51785" lon="7.07054">
        <ele>-2.75</ele>
        <time>2014-08-24T08:10:00Z</time>
      </trkpt>
      <trkpt lat="43.51786" lon="7.07048">
        <ele>-2.75</ele>
        <time>2014-08-24T08:10:06Z</time>
      </trkpt>
      <trkpt lat="43.51788" lon="7.07039">
        <ele>-2.75</ele>
        <time>2014-08-24T08:10:13Z</time>
      </trkpt>
      <trkpt lat="43.51788" lon="7.07029">
        <ele>-2.75</ele>
        <time>2014-08-24T08:10:23Z</time>
      </trkpt>
      <trkpt lat="43.5179" lon="7.07017">
        <ele>-2.27</ele>
        <time>2014-08-24T08:10:31Z</time>
      </trkpt>
      <trkpt lat="43.51791" lon="7.07012">
        <ele>-2.27</ele>
        <time>2014-08-24T08:10:35Z</time>
      </trkpt>
      <trkpt lat="43.51792" lon="7.07002">
        <ele>-2.27</ele>
        <time>2014-08-24T08:10:41Z</time>
      </trkpt>
      <trkpt lat="43.51797" lon="7.06992">
        <ele>-2.27</ele>
        <time>2014-08-24T08:10:47Z</time>
      </trkpt>
      <trkpt lat="43.51798" lon="7.06989">
        <ele>-2.27</ele>
        <time>2014-08-24T08:10:49Z</time>
      </trkpt>
      <trkpt lat="43.518" lon="7.06982">
        <ele>-2.27</ele>
        <time>2014-08-24T08:10:53Z</time>
      </trkpt>
      <trkpt lat="43.51805" lon="7.06972">
        <ele>-2.27</ele>
        <time>2014-08-24T08:11:00Z</time>
      </trkpt>
      <trkpt lat="43.51813" lon="7.06956">
        <ele>-2.27</ele>
        <time>2014-08-24T08:11:11Z</time>
      </trkpt>
      <trkpt lat="43.51815" lon="7.06945">
        <ele>-2.27</ele>
        <time>2014-08-24T08:11:18Z</time>
      </trkpt>
      <trkpt lat="43.51818" lon="7.06933">
        <ele>-2.27</ele>
        <time>2014-08-24T08:11:26Z</time>
      </trkpt>
      <trkpt lat="43.5182" lon="7.06924">
        <ele>-2.27</ele>
        <time>2014-08-24T08:11:32Z</time>
      </trkpt>
      <trkpt lat="43.51823" lon="7.06919">
        <ele>-2.27</ele>
        <time>2014-08-24T08:11:36Z</time>
      </trkpt>
      <trkpt lat="43.51826" lon="7.06911">
        <ele>-2.27</ele>
        <time>2014-08-24T08:11:41Z</time>
      </trkpt>
      <trkpt lat="43.51832" lon="7.06899">
        <ele>-2.27</ele>
        <time>2014-08-24T08:11:51Z</time>
      </trkpt>
      <trkpt lat="43.51839" lon="7.06889">
        <ele>-2.27</ele>
        <time>2014-08-24T08:12:00Z</time>
      </trkpt>
      <trkpt lat="43.51841" lon="7.06886">
        <ele>-2.27</ele>
        <time>2014-08-24T08:12:03Z</time>
      </trkpt>
      <trkpt lat="43.51847" lon="7.06873">
        <ele>-2.27</ele>
        <time>2014-08-24T08:12:15Z</time>
      </trkpt>
      <trkpt lat="43.5185" lon="7.06869">
        <ele>-2.27</ele>
        <time>2014-08-24T08:12:19Z</time>
      </trkpt>
      <trkpt lat="43.51852" lon="7.06866">
        <ele>-2.27</ele>
        <time>2014-08-24T08:12:22Z</time>
      </trkpt>
      <trkpt lat="43.51856" lon="7.06855">
        <ele>-2.27</ele>
        <time>2014-08-24T08:12:31Z</time>
      </trkpt>
      <trkpt lat="43.51862" lon="7.06841">
        <ele>-2.27</ele>
        <time>2014-08-24T08:12:43Z</time>
      </trkpt>
      <trkpt lat="43.51862" lon="7.0684">
        <ele>-2.27</ele>
        <time>2014-08-24T08:12:44Z</time>
      </trkpt>
      <trkpt lat="43.51865" lon="7.06835">
        <ele>-2.27</ele>
        <time>2014-08-24T08:12:48Z</time>
      </trkpt>
      <trkpt lat="43.51875" lon="7.06822">
        <ele>-2.27</ele>
        <time>2014-08-24T08:13:02Z</time>
      </trkpt>
      <trkpt lat="43.51877" lon="7.0682">
        <ele>-2.27</ele>
        <time>2014-08-24T08:13:05Z</time>
      </trkpt>
      <trkpt lat="43.51881" lon="7.06813">
        <ele>-3.71</ele>
        <time>2014-08-24T08:13:13Z</time>
      </trkpt>
      <trkpt lat="43.51882" lon="7.06812">
        <ele>-2.75</ele>
        <time>2014-08-24T08:13:15Z</time>
      </trkpt>
      <trkpt lat="43.51881" lon="7.06805">
        <ele>-2.75</ele>
        <time>2014-08-24T08:13:26Z</time>
      </trkpt>
      <trkpt lat="43.51882" lon="7.06799">
        <ele>-2.75</ele>
        <time>2014-08-24T08:13:31Z</time>
      </trkpt>
      <trkpt lat="43.51883" lon="7.06794">
        <ele>-2.75</ele>
        <time>2014-08-24T08:13:34Z</time>
      </trkpt>
      <trkpt lat="43.51887" lon="7.06778">
        <ele>-2.75</ele>
        <time>2014-08-24T08:13:45Z</time>
      </trkpt>
      <trkpt lat="43.51888" lon="7.06762">
        <ele>-2.75</ele>
        <time>2014-08-24T08:13:59Z</time>
      </trkpt>
      <trkpt lat="43.51891" lon="7.06748">
        <ele>-2.75</ele>
        <time>2014-08-24T08:14:10Z</time>
      </trkpt>
      <trkpt lat="43.51893" lon="7.06744">
        <ele>-2.75</ele>
        <time>2014-08-24T08:14:13Z</time>
      </trkpt>
      <trkpt lat="43.51895" lon="7.06738">
        <ele>-2.75</ele>
        <time>2014-08-24T08:14:18Z</time>
      </trkpt>
      <trkpt lat="43.51899" lon="7.06724">
        <ele>-2.75</ele>
        <time>2014-08-24T08:14:29Z</time>
      </trkpt>
      <trkpt lat="43.51905" lon="7.06713">
        <ele>-2.75</ele>
        <time>2014-08-24T08:14:39Z</time>
      </trkpt>
      <trkpt lat="43.51906" lon="7.067">
        <ele>-2.75</ele>
        <time>2014-08-24T08:14:49Z</time>
      </trkpt>
      <trkpt lat="43.51906" lon="7.06698">
        <ele>-2.75</ele>
        <time>2014-08-24T08:14:50Z</time>
      </trkpt>
      <trkpt lat="43.51909" lon="7.06685">
        <ele>-2.75</ele>
        <time>2014-08-24T08:15:00Z</time>
      </trkpt>
      <trkpt lat="43.51912" lon="7.06671">
        <ele>-2.75</ele>
        <time>2014-08-24T08:15:10Z</time>
      </trkpt>
      <trkpt lat="43.51913" lon="7.06668">
        <ele>-2.75</ele>
        <time>2014-08-24T08:15:12Z</time>
      </trkpt>
      <trkpt lat="43.51915" lon="7.0666">
        <ele>-2.75</ele>
        <time>2014-08-24T08:15:18Z</time>
      </trkpt>
      <trkpt lat="43.51918" lon="7.06652">
        <ele>-2.75</ele>
        <time>2014-08-24T08:15:24Z</time>
      </trkpt>
      <trkpt lat="43.51922" lon="7.06642">
        <ele>-2.75</ele>
        <time>2014-08-24T08:15:32Z</time>
      </trkpt>
      <trkpt lat="43.51924" lon="7.06633">
        <ele>-2.75</ele>
        <time>2014-08-24T08:15:39Z</time>
      </trkpt>
      <trkpt lat="43.51926" lon="7.06628">
        <ele>-2.75</ele>
        <time>2014-08-24T08:15:43Z</time>
      </trkpt>
      <trkpt lat="43.51932" lon="7.06612">
        <ele>-2.75</ele>
        <time>2014-08-24T08:15:57Z</time>
      </trkpt>
      <trkpt lat="43.51936" lon="7.06604">
        <ele>-2.75</ele>
        <time>2014-08-24T08:16:07Z</time>
      </trkpt>
      <trkpt lat="43.51938" lon="7.06592">
        <ele>-2.75</ele>
        <time>2014-08-24T08:16:16Z</time>
      </trkpt>
      <trkpt lat="43.51939" lon="7.0659">
        <ele>-2.75</ele>
        <time>2014-08-24T08:16:18Z</time>
      </trkpt>
      <trkpt lat="43.5194" lon="7.06585">
        <ele>-2.75</ele>
        <time>2014-08-24T08:16:22Z</time>
      </trkpt>
      <trkpt lat="43.51947" lon="7.0657">
        <ele>-2.75</ele>
        <time>2014-08-24T08:16:34Z</time>
      </trkpt>
      <trkpt lat="43.51956" lon="7.06559">
        <ele>-2.75</ele>
        <time>2014-08-24T08:16:47Z</time>
      </trkpt>
      <trkpt lat="43.51962" lon="7.06548">
        <ele>-2.75</ele>
        <time>2014-08-24T08:16:59Z</time>
      </trkpt>
      <trkpt lat="43.51963" lon="7.06547">
        <ele>-2.75</ele>
        <time>2014-08-24T08:17:00Z</time>
      </trkpt>
      <trkpt lat="43.51971" lon="7.06537">
        <ele>-2.75</ele>
        <time>2014-08-24T08:17:11Z</time>
      </trkpt>
      <trkpt lat="43.51975" lon="7.06529">
        <ele>-2.75</ele>
        <time>2014-08-24T08:17:19Z</time>
      </trkpt>
      <trkpt lat="43.51977" lon="7.06524">
        <ele>-2.75</ele>
        <time>2014-08-24T08:17:24Z</time>
      </trkpt>
      <trkpt lat="43.51982" lon="7.06515">
        <ele>-2.75</ele>
        <time>2014-08-24T08:17:33Z</time>
      </trkpt>
      <trkpt lat="43.51983" lon="7.0651">
        <ele>-2.75</ele>
        <time>2014-08-24T08:17:38Z</time>
      </trkpt>
      <trkpt lat="43.51984" lon="7.06505">
        <ele>-2.75</ele>
        <time>2014-08-24T08:17:43Z</time>
      </trkpt>
      <trkpt lat="43.51985" lon="7.06501">
        <ele>-2.75</ele>
        <time>2014-08-24T08:17:46Z</time>
      </trkpt>
      <trkpt lat="43.51994" lon="7.06485">
        <ele>-2.75</ele>
        <time>2014-08-24T08:17:59Z</time>
      </trkpt>
      <trkpt lat="43.52" lon="7.06475">
        <ele>-2.75</ele>
        <time>2014-08-24T08:18:07Z</time>
      </trkpt>
      <trkpt lat="43.52004" lon="7.06469">
        <ele>-3.71</ele>
        <time>2014-08-24T08:18:13Z</time>
      </trkpt>
      <trkpt lat="43.52006" lon="7.06464">
        <ele>-2.27</ele>
        <time>2014-08-24T08:18:19Z</time>
      </trkpt>
      <trkpt lat="43.52008" lon="7.06459">
        <ele>-2.27</ele>
        <time>2014-08-24T08:18:23Z</time>
      </trkpt>
      <trkpt lat="43.52011" lon="7.06453">
        <ele>-2.27</ele>
        <time>2014-08-24T08:18:28Z</time>
      </trkpt>
      <trkpt lat="43.52016" lon="7.0644">
        <ele>-2.27</ele>
        <time>2014-08-24T08:18:37Z</time>
      </trkpt>
      <trkpt lat="43.52018" lon="7.06437">
        <ele>-2.27</ele>
        <time>2014-08-24T08:18:39Z</time>
      </trkpt>
      <trkpt lat="43.52024" lon="7.06427">
        <ele>-2.27</ele>
        <time>2014-08-24T08:18:47Z</time>
      </trkpt>
      <trkpt lat="43.5203" lon="7.06419">
        <ele>-2.27</ele>
        <time>2014-08-24T08:18:55Z</time>
      </trkpt>
      <trkpt lat="43.52035" lon="7.06411">
        <ele>-1.79</ele>
        <time>2014-08-24T08:19:02Z</time>
      </trkpt>
      <trkpt lat="43.52037" lon="7.06408">
        <ele>-2.27</ele>
        <time>2014-08-24T08:19:05Z</time>
      </trkpt>
      <trkpt lat="43.52044" lon="7.06396">
        <ele>-2.27</ele>
        <time>2014-08-24T08:19:15Z</time>
      </trkpt>
      <trkpt lat="43.52045" lon="7.06392">
        <ele>-2.27</ele>
        <time>2014-08-24T08:19:18Z</time>
      </trkpt>
      <trkpt lat="43.5205" lon="7.06383">
        <ele>-1.79</ele>
        <time>2014-08-24T08:19:25Z</time>
      </trkpt>
      <trkpt lat="43.52052" lon="7.06379">
        <ele>-1.79</ele>
        <time>2014-08-24T08:19:28Z</time>
      </trkpt>
      <trkpt lat="43.52054" lon="7.06373">
        <ele>-1.79</ele>
        <time>2014-08-24T08:19:33Z</time>
      </trkpt>
      <trkpt lat="43.52058" lon="7.06365">
        <ele>-1.79</ele>
        <time>2014-08-24T08:19:39Z</time>
      </trkpt>
      <trkpt lat="43.52059" lon="7.06362">
        <ele>-1.79</ele>
        <time>2014-08-24T08:19:41Z</time>
      </trkpt>
      <trkpt lat="43.5206" lon="7.06358">
        <ele>-1.79</ele>
        <time>2014-08-24T08:19:44Z</time>
      </trkpt>
      <trkpt lat="43.52063" lon="7.06339">
        <ele>-1.79</ele>
        <time>2014-08-24T08:19:58Z</time>
      </trkpt>
      <trkpt lat="43.52065" lon="7.06329">
        <ele>-1.79</ele>
        <time>2014-08-24T08:20:05Z</time>
      </trkpt>
      <trkpt lat="43.52068" lon="7.06311">
        <ele>-1.79</ele>
        <time>2014-08-24T08:20:18Z</time>
      </trkpt>
      <trkpt lat="43.52068" lon="7.06296">
        <ele>-1.79</ele>
        <time>2014-08-24T08:20:28Z</time>
      </trkpt>
      <trkpt lat="43.52073" lon="7.06275">
        <ele>-1.79</ele>
        <time>2014-08-24T08:20:42Z</time>
      </trkpt>
      <trkpt lat="43.52071" lon="7.06253">
        <ele>-1.79</ele>
        <time>2014-08-24T08:20:56Z</time>
      </trkpt>
      <trkpt lat="43.52076" lon="7.06233">
        <ele>-1.79</ele>
        <time>2014-08-24T08:21:10Z</time>
      </trkpt>
      <trkpt lat="43.52078" lon="7.06227">
        <ele>-1.79</ele>
        <time>2014-08-24T08:21:14Z</time>
      </trkpt>
      <trkpt lat="43.5208" lon="7.0621">
        <ele>-1.79</ele>
        <time>2014-08-24T08:21:25Z</time>
      </trkpt>
      <trkpt lat="43.5208" lon="7.06207">
        <ele>-1.79</ele>
        <time>2014-08-24T08:21:27Z</time>
      </trkpt>
      <trkpt lat="43.52076" lon="7.06195">
        <ele>-1.79</ele>
        <time>2014-08-24T08:21:35Z</time>
      </trkpt>
      <trkpt lat="43.52077" lon="7.06188">
        <ele>-1.79</ele>
        <time>2014-08-24T08:21:40Z</time>
      </trkpt>
      <trkpt lat="43.5208" lon="7.06173">
        <ele>-1.79</ele>
        <time>2014-08-24T08:21:50Z</time>
      </trkpt>
      <trkpt lat="43.5208" lon="7.06171">
        <ele>-1.79</ele>
        <time>2014-08-24T08:21:51Z</time>
      </trkpt>
      <trkpt lat="43.52082" lon="7.06154">
        <ele>-1.79</ele>
        <time>2014-08-24T08:22:03Z</time>
      </trkpt>
      <trkpt lat="43.5208" lon="7.06139">
        <ele>-1.79</ele>
        <time>2014-08-24T08:22:13Z</time>
      </trkpt>
      <trkpt lat="43.52079" lon="7.06125">
        <ele>-1.79</ele>
        <time>2014-08-24T08:22:22Z</time>
      </trkpt>
      <trkpt lat="43.5208" lon="7.06119">
        <ele>-1.79</ele>
        <time>2014-08-24T08:22:26Z</time>
      </trkpt>
      <trkpt lat="43.52082" lon="7.0611">
        <ele>-1.79</ele>
        <time>2014-08-24T08:22:32Z</time>
      </trkpt>
      <trkpt lat="43.52084" lon="7.06097">
        <ele>-1.79</ele>
        <time>2014-08-24T08:22:41Z</time>
      </trkpt>
      <trkpt lat="43.52083" lon="7.06086">
        <ele>-1.79</ele>
        <time>2014-08-24T08:22:54Z</time>
      </trkpt>
      <trkpt lat="43.5208" lon="7.06079">
        <ele>-3.23</ele>
        <time>2014-08-24T08:23:06Z</time>
      </trkpt>
      <trkpt lat="43.5208" lon="7.06071">
        <ele>-3.23</ele>
        <time>2014-08-24T08:23:16Z</time>
      </trkpt>
      <trkpt lat="43.5208" lon="7.06069">
        <ele>-3.23</ele>
        <time>2014-08-24T08:23:18Z</time>
      </trkpt>
      <trkpt lat="43.52082" lon="7.06064">
        <ele>-3.23</ele>
        <time>2014-08-24T08:23:23Z</time>
      </trkpt>
      <trkpt lat="43.52083" lon="7.06061">
        <ele>-3.23</ele>
        <time>2014-08-24T08:23:25Z</time>
      </trkpt>
      <trkpt lat="43.52085" lon="7.06058">
        <ele>-3.23</ele>
        <time>2014-08-24T08:23:28Z</time>
      </trkpt>
      <trkpt lat="43.52086" lon="7.06053">
        <ele>-3.23</ele>
        <time>2014-08-24T08:23:32Z</time>
      </trkpt>
      <trkpt lat="43.52088" lon="7.06035">
        <ele>-3.23</ele>
        <time>2014-08-24T08:23:45Z</time>
      </trkpt>
      <trkpt lat="43.52088" lon="7.06032">
        <ele>-3.23</ele>
        <time>2014-08-24T08:23:47Z</time>
      </trkpt>
      <trkpt lat="43.52091" lon="7.06022">
        <ele>-3.23</ele>
        <time>2014-08-24T08:23:55Z</time>
      </trkpt>
      <trkpt lat="43.52093" lon="7.06015">
        <ele>-3.23</ele>
        <time>2014-08-24T08:24:02Z</time>
      </trkpt>
      <trkpt lat="43.52096" lon="7.06001">
        <ele>-3.23</ele>
        <time>2014-08-24T08:24:14Z</time>
      </trkpt>
      <trkpt lat="43.52096" lon="7.05984">
        <ele>-3.23</ele>
        <time>2014-08-24T08:24:28Z</time>
      </trkpt>
      <trkpt lat="43.52097" lon="7.05977">
        <ele>-3.23</ele>
        <time>2014-08-24T08:24:33Z</time>
      </trkpt>
      <trkpt lat="43.52101" lon="7.05959">
        <ele>-3.23</ele>
        <time>2014-08-24T08:24:45Z</time>
      </trkpt>
      <trkpt lat="43.52105" lon="7.05942">
        <ele>-2.75</ele>
        <time>2014-08-24T08:25:00Z</time>
      </trkpt>
      <trkpt lat="43.52109" lon="7.05928">
        <ele>-2.75</ele>
        <time>2014-08-24T08:25:11Z</time>
      </trkpt>
      <trkpt lat="43.52109" lon="7.05925">
        <ele>-2.75</ele>
        <time>2014-08-24T08:25:13Z</time>
      </trkpt>
      <trkpt lat="43.52112" lon="7.05919">
        <ele>-2.75</ele>
        <time>2014-08-24T08:25:18Z</time>
      </trkpt>
      <trkpt lat="43.52115" lon="7.05906">
        <ele>-2.75</ele>
        <time>2014-08-24T08:25:28Z</time>
      </trkpt>
      <trkpt lat="43.52114" lon="7.05891">
        <ele>-2.75</ele>
        <time>2014-08-24T08:25:38Z</time>
      </trkpt>
      <trkpt lat="43.52115" lon="7.0588">
        <ele>-2.75</ele>
        <time>2014-08-24T08:25:46Z</time>
      </trkpt>
      <trkpt lat="43.52117" lon="7.05863">
        <ele>-2.75</ele>
        <time>2014-08-24T08:25:57Z</time>
      </trkpt>
      <trkpt lat="43.52121" lon="7.05848">
        <ele>-2.27</ele>
        <time>2014-08-24T08:26:08Z</time>
      </trkpt>
      <trkpt lat="43.52124" lon="7.05836">
        <ele>-2.27</ele>
        <time>2014-08-24T08:26:17Z</time>
      </trkpt>
      <trkpt lat="43.52123" lon="7.05827">
        <ele>-2.27</ele>
        <time>2014-08-24T08:26:23Z</time>
      </trkpt>
      <trkpt lat="43.52123" lon="7.05822">
        <ele>-2.27</ele>
        <time>2014-08-24T08:26:27Z</time>
      </trkpt>
      <trkpt lat="43.52122" lon="7.05816">
        <ele>-2.27</ele>
        <time>2014-08-24T08:26:31Z</time>
      </trkpt>
      <trkpt lat="43.52125" lon="7.05794">
        <ele>-2.27</ele>
        <time>2014-08-24T08:26:45Z</time>
      </trkpt>
      <trkpt lat="43.52127" lon="7.05788">
        <ele>-2.27</ele>
        <time>2014-08-24T08:26:49Z</time>
      </trkpt>
      <trkpt lat="43.5213" lon="7.05778">
        <ele>-2.27</ele>
        <time>2014-08-24T08:26:56Z</time>
      </trkpt>
      <trkpt lat="43.52131" lon="7.05774">
        <ele>-2.27</ele>
        <time>2014-08-24T08:26:59Z</time>
      </trkpt>
      <trkpt lat="43.52131" lon="7.05772">
        <ele>-2.27</ele>
        <time>2014-08-24T08:27:01Z</time>
      </trkpt>
      <trkpt lat="43.5213" lon="7.05765">
        <ele>-2.27</ele>
        <time>2014-08-24T08:27:06Z</time>
      </trkpt>
      <trkpt lat="43.52129" lon="7.0576">
        <ele>-2.27</ele>
        <time>2014-08-24T08:27:10Z</time>
      </trkpt>
      <trkpt lat="43.52128" lon="7.05739">
        <ele>-3.71</ele>
        <time>2014-08-24T08:27:24Z</time>
      </trkpt>
      <trkpt lat="43.52129" lon="7.05734">
        <ele>-3.71</ele>
        <time>2014-08-24T08:27:27Z</time>
      </trkpt>
      <trkpt lat="43.52131" lon="7.05725">
        <ele>-3.71</ele>
        <time>2014-08-24T08:27:33Z</time>
      </trkpt>
      <trkpt lat="43.52132" lon="7.05719">
        <ele>-3.71</ele>
        <time>2014-08-24T08:27:37Z</time>
      </trkpt>
      <trkpt lat="43.52136" lon="7.05703">
        <ele>-3.71</ele>
        <time>2014-08-24T08:27:49Z</time>
      </trkpt>
      <trkpt lat="43.52139" lon="7.0569">
        <ele>-3.71</ele>
        <time>2014-08-24T08:28:00Z</time>
      </trkpt>
      <trkpt lat="43.5214" lon="7.05686">
        <ele>-3.71</ele>
        <time>2014-08-24T08:28:03Z</time>
      </trkpt>
      <trkpt lat="43.52139" lon="7.05681">
        <ele>-3.71</ele>
        <time>2014-08-24T08:28:06Z</time>
      </trkpt>
      <trkpt lat="43.52139" lon="7.05674">
        <ele>-3.23</ele>
        <time>2014-08-24T08:28:11Z</time>
      </trkpt>
      <trkpt lat="43.52139" lon="7.05664">
        <ele>-3.23</ele>
        <time>2014-08-24T08:28:17Z</time>
      </trkpt>
      <trkpt lat="43.5214" lon="7.05648">
        <ele>-3.23</ele>
        <time>2014-08-24T08:28:27Z</time>
      </trkpt>
      <trkpt lat="43.52139" lon="7.05633">
        <ele>-3.23</ele>
        <time>2014-08-24T08:28:37Z</time>
      </trkpt>
      <trkpt lat="43.52139" lon="7.05624">
        <ele>-3.23</ele>
        <time>2014-08-24T08:28:43Z</time>
      </trkpt>
      <trkpt lat="43.52139" lon="7.05617">
        <ele>-3.23</ele>
        <time>2014-08-24T08:28:48Z</time>
      </trkpt>
      <trkpt lat="43.52139" lon="7.0561">
        <ele>-3.23</ele>
        <time>2014-08-24T08:28:52Z</time>
      </trkpt>
      <trkpt lat="43.52139" lon="7.05599">
        <ele>-3.23</ele>
        <time>2014-08-24T08:28:59Z</time>
      </trkpt>
      <trkpt lat="43.5214" lon="7.05591">
        <ele>-3.23</ele>
        <time>2014-08-24T08:29:04Z</time>
      </trkpt>
      <trkpt lat="43.52141" lon="7.05579">
        <ele>-3.23</ele>
        <time>2014-08-24T08:29:12Z</time>
      </trkpt>
      <trkpt lat="43.5214" lon="7.05566">
        <ele>-3.71</ele>
        <time>2014-08-24T08:29:20Z</time>
      </trkpt>
      <trkpt lat="43.52141" lon="7.05553">
        <ele>-4.19</ele>
        <time>2014-08-24T08:29:31Z</time>
      </trkpt>
      <trkpt lat="43.52141" lon="7.05552">
        <ele>-4.19</ele>
        <time>2014-08-24T08:29:32Z</time>
      </trkpt>
      <trkpt lat="43.52144" lon="7.05541">
        <ele>-4.19</ele>
        <time>2014-08-24T08:29:44Z</time>
      </trkpt>
      <trkpt lat="43.52147" lon="7.05531">
        <ele>-4.19</ele>
        <time>2014-08-24T08:29:54Z</time>
      </trkpt>
      <trkpt lat="43.52149" lon="7.05514">
        <ele>-4.19</ele>
        <time>2014-08-24T08:30:06Z</time>
      </trkpt>
      <trkpt lat="43.52149" lon="7.05508">
        <ele>-4.19</ele>
        <time>2014-08-24T08:30:10Z</time>
      </trkpt>
      <trkpt lat="43.52146" lon="7.05486">
        <ele>-4.19</ele>
        <time>2014-08-24T08:30:25Z</time>
      </trkpt>
      <trkpt lat="43.52143" lon="7.05473">
        <ele>-4.19</ele>
        <time>2014-08-24T08:30:37Z</time>
      </trkpt>
      <trkpt lat="43.52143" lon="7.05468">
        <ele>-4.19</ele>
        <time>2014-08-24T08:30:41Z</time>
      </trkpt>
      <trkpt lat="43.52144" lon="7.05457">
        <ele>-4.19</ele>
        <time>2014-08-24T08:30:48Z</time>
      </trkpt>
      <trkpt lat="43.52148" lon="7.05442">
        <ele>-4.19</ele>
        <time>2014-08-24T08:30:59Z</time>
      </trkpt>
      <trkpt lat="43.52153" lon="7.05433">
        <ele>-3.71</ele>
        <time>2014-08-24T08:31:08Z</time>
      </trkpt>
      <trkpt lat="43.52156" lon="7.05428">
        <ele>-3.71</ele>
        <time>2014-08-24T08:31:13Z</time>
      </trkpt>
      <trkpt lat="43.52165" lon="7.05418">
        <ele>-2.75</ele>
        <time>2014-08-24T08:31:26Z</time>
      </trkpt>
      <trkpt lat="43.52171" lon="7.05412">
        <ele>-2.75</ele>
        <time>2014-08-24T08:31:35Z</time>
      </trkpt>
      <trkpt lat="43.52173" lon="7.05403">
        <ele>-2.75</ele>
        <time>2014-08-24T08:31:42Z</time>
      </trkpt>
      <trkpt lat="43.52175" lon="7.05399">
        <ele>-2.75</ele>
        <time>2014-08-24T08:31:45Z</time>
      </trkpt>
      <trkpt lat="43.5218" lon="7.05387">
        <ele>-2.75</ele>
        <time>2014-08-24T08:31:54Z</time>
      </trkpt>
      <trkpt lat="43.52184" lon="7.05379">
        <ele>-2.75</ele>
        <time>2014-08-24T08:32:01Z</time>
      </trkpt>
      <trkpt lat="43.52187" lon="7.05375">
        <ele>-2.75</ele>
        <time>2014-08-24T08:32:05Z</time>
      </trkpt>
      <trkpt lat="43.52189" lon="7.05372">
        <ele>-2.75</ele>
        <time>2014-08-24T08:32:08Z</time>
      </trkpt>
      <trkpt lat="43.52191" lon="7.0536">
        <ele>-2.75</ele>
        <time>2014-08-24T08:32:20Z</time>
      </trkpt>
      <trkpt lat="43.52191" lon="7.05358">
        <ele>-2.75</ele>
        <time>2014-08-24T08:32:22Z</time>
      </trkpt>
      <trkpt lat="43.52191" lon="7.05356">
        <ele>-2.75</ele>
        <time>2014-08-24T08:32:24Z</time>
      </trkpt>
      <trkpt lat="43.52194" lon="7.05334">
        <ele>-2.75</ele>
        <time>2014-08-24T08:32:39Z</time>
      </trkpt>
      <trkpt lat="43.52195" lon="7.05328">
        <ele>-2.75</ele>
        <time>2014-08-24T08:32:43Z</time>
      </trkpt>
      <trkpt lat="43.52195" lon="7.05322">
        <ele>-2.75</ele>
        <time>2014-08-24T08:32:47Z</time>
      </trkpt>
      <trkpt lat="43.52196" lon="7.05319">
        <ele>-2.75</ele>
        <time>2014-08-24T08:32:49Z</time>
      </trkpt>
      <trkpt lat="43.52197" lon="7.05304">
        <ele>-2.75</ele>
        <time>2014-08-24T08:33:01Z</time>
      </trkpt>
      <trkpt lat="43.52196" lon="7.053">
        <ele>-2.75</ele>
        <time>2014-08-24T08:33:04Z</time>
      </trkpt>
      <trkpt lat="43.52195" lon="7.05294">
        <ele>-2.75</ele>
        <time>2014-08-24T08:33:08Z</time>
      </trkpt>
      <trkpt lat="43.52196" lon="7.0528">
        <ele>-2.75</ele>
        <time>2014-08-24T08:33:18Z</time>
      </trkpt>
      <trkpt lat="43.522" lon="7.05263">
        <ele>-2.75</ele>
        <time>2014-08-24T08:33:30Z</time>
      </trkpt>
      <trkpt lat="43.52207" lon="7.05249">
        <ele>-2.75</ele>
        <time>2014-08-24T08:33:42Z</time>
      </trkpt>
      <trkpt lat="43.52208" lon="7.05245">
        <ele>-2.75</ele>
        <time>2014-08-24T08:33:45Z</time>
      </trkpt>
      <trkpt lat="43.52212" lon="7.0523">
        <ele>-2.75</ele>
        <time>2014-08-24T08:33:57Z</time>
      </trkpt>
      <trkpt lat="43.52214" lon="7.05225">
        <ele>-2.75</ele>
        <time>2014-08-24T08:34:02Z</time>
      </trkpt>
      <trkpt lat="43.52223" lon="7.0521">
        <ele>-2.75</ele>
        <time>2014-08-24T08:34:16Z</time>
      </trkpt>
      <trkpt lat="43.52225" lon="7.05207">
        <ele>-2.75</ele>
        <time>2014-08-24T08:34:19Z</time>
      </trkpt>
      <trkpt lat="43.5223" lon="7.052">
        <ele>-2.75</ele>
        <time>2014-08-24T08:34:26Z</time>
      </trkpt>
      <trkpt lat="43.52237" lon="7.0519">
        <ele>-2.75</ele>
        <time>2014-08-24T08:34:37Z</time>
      </trkpt>
      <trkpt lat="43.52244" lon="7.05179">
        <ele>-2.75</ele>
        <time>2014-08-24T08:34:49Z</time>
      </trkpt>
      <trkpt lat="43.52252" lon="7.05171">
        <ele>-2.75</ele>
        <time>2014-08-24T08:35:02Z</time>
      </trkpt>
      <trkpt lat="43.5226" lon="7.05165">
        <ele>-2.75</ele>
        <time>2014-08-24T08:35:13Z</time>
      </trkpt>
      <trkpt lat="43.52268" lon="7.05157">
        <ele>-2.75</ele>
        <time>2014-08-24T08:35:23Z</time>
      </trkpt>
      <trkpt lat="43.52271" lon="7.05154">
        <ele>-2.75</ele>
        <time>2014-08-24T08:35:26Z</time>
      </trkpt>
      <trkpt lat="43.52279" lon="7.05143">
        <ele>-2.75</ele>
        <time>2014-08-24T08:35:39Z</time>
      </trkpt>
      <trkpt lat="43.52286" lon="7.05133">
        <ele>-2.75</ele>
        <time>2014-08-24T08:35:50Z</time>
      </trkpt>
      <trkpt lat="43.52289" lon="7.0513">
        <ele>-2.75</ele>
        <time>2014-08-24T08:35:55Z</time>
      </trkpt>
      <trkpt lat="43.52292" lon="7.05127">
        <ele>-2.75</ele>
        <time>2014-08-24T08:35:58Z</time>
      </trkpt>
      <trkpt lat="43.52297" lon="7.05121">
        <ele>-2.75</ele>
        <time>2014-08-24T08:36:06Z</time>
      </trkpt>
      <trkpt lat="43.52307" lon="7.05114">
        <ele>-2.75</ele>
        <time>2014-08-24T08:36:19Z</time>
      </trkpt>
      <trkpt lat="43.52311" lon="7.05108">
        <ele>-2.27</ele>
        <time>2014-08-24T08:36:26Z</time>
      </trkpt>
      <trkpt lat="43.52314" lon="7.05098">
        <ele>-2.27</ele>
        <time>2014-08-24T08:36:35Z</time>
      </trkpt>
      <trkpt lat="43.52318" lon="7.05091">
        <ele>-2.27</ele>
        <time>2014-08-24T08:36:41Z</time>
      </trkpt>
      <trkpt lat="43.52327" lon="7.05078">
        <ele>-2.27</ele>
        <time>2014-08-24T08:36:55Z</time>
      </trkpt>
      <trkpt lat="43.52328" lon="7.05077">
        <ele>-2.27</ele>
        <time>2014-08-24T08:36:56Z</time>
      </trkpt>
      <trkpt lat="43.52331" lon="7.05073">
        <ele>-2.27</ele>
        <time>2014-08-24T08:37:01Z</time>
      </trkpt>
      <trkpt lat="43.52334" lon="7.05069">
        <ele>-2.27</ele>
        <time>2014-08-24T08:37:05Z</time>
      </trkpt>
      <trkpt lat="43.52342" lon="7.05059">
        <ele>-2.27</ele>
        <time>2014-08-24T08:37:17Z</time>
      </trkpt>
      <trkpt lat="43.52343" lon="7.05057">
        <ele>-2.27</ele>
        <time>2014-08-24T08:37:19Z</time>
      </trkpt>
      <trkpt lat="43.52346" lon="7.05048">
        <ele>-2.27</ele>
        <time>2014-08-24T08:37:28Z</time>
      </trkpt>
      <trkpt lat="43.52348" lon="7.0504">
        <ele>-2.27</ele>
        <time>2014-08-24T08:37:35Z</time>
      </trkpt>
      <trkpt lat="43.52356" lon="7.05025">
        <ele>-2.27</ele>
        <time>2014-08-24T08:37:49Z</time>
      </trkpt>
      <trkpt lat="43.52357" lon="7.05024">
        <ele>-2.27</ele>
        <time>2014-08-24T08:37:50Z</time>
      </trkpt>
      <trkpt lat="43.52364" lon="7.05012">
        <ele>-2.27</ele>
        <time>2014-08-24T08:38:01Z</time>
      </trkpt>
      <trkpt lat="43.52372" lon="7.05">
        <ele>-2.27</ele>
        <time>2014-08-24T08:38:12Z</time>
      </trkpt>
      <trkpt lat="43.52375" lon="7.04995">
        <ele>-2.27</ele>
        <time>2014-08-24T08:38:16Z</time>
      </trkpt>
      <trkpt lat="43.52378" lon="7.0499">
        <ele>-2.27</ele>
        <time>2014-08-24T08:38:21Z</time>
      </trkpt>
      <trkpt lat="43.52385" lon="7.04976">
        <ele>-2.27</ele>
        <time>2014-08-24T08:38:33Z</time>
      </trkpt>
      <trkpt lat="43.52388" lon="7.04969">
        <ele>-2.27</ele>
        <time>2014-08-24T08:38:40Z</time>
      </trkpt>
      <trkpt lat="43.52393" lon="7.04957">
        <ele>-2.27</ele>
        <time>2014-08-24T08:38:51Z</time>
      </trkpt>
      <trkpt lat="43.52396" lon="7.04952">
        <ele>-2.27</ele>
        <time>2014-08-24T08:38:55Z</time>
      </trkpt>
      <trkpt lat="43.52403" lon="7.04937">
        <ele>-2.27</ele>
        <time>2014-08-24T08:39:08Z</time>
      </trkpt>
      <trkpt lat="43.52404" lon="7.04935">
        <ele>-2.27</ele>
        <time>2014-08-24T08:39:10Z</time>
      </trkpt>
      <trkpt lat="43.52411" lon="7.04922">
        <ele>-2.27</ele>
        <time>2014-08-24T08:39:21Z</time>
      </trkpt>
      <trkpt lat="43.52413" lon="7.04919">
        <ele>-2.27</ele>
        <time>2014-08-24T08:39:24Z</time>
      </trkpt>
      <trkpt lat="43.52421" lon="7.04905">
        <ele>-2.27</ele>
        <time>2014-08-24T08:39:37Z</time>
      </trkpt>
      <trkpt lat="43.52421" lon="7.04903">
        <ele>-2.27</ele>
        <time>2014-08-24T08:39:39Z</time>
      </trkpt>
      <trkpt lat="43.52425" lon="7.04888">
        <ele>-2.27</ele>
        <time>2014-08-24T08:39:50Z</time>
      </trkpt>
      <trkpt lat="43.52427" lon="7.0488">
        <ele>-2.27</ele>
        <time>2014-08-24T08:39:56Z</time>
      </trkpt>
      <trkpt lat="43.5243" lon="7.04868">
        <ele>-2.27</ele>
        <time>2014-08-24T08:40:05Z</time>
      </trkpt>
      <trkpt lat="43.52431" lon="7.04864">
        <ele>-2.27</ele>
        <time>2014-08-24T08:40:09Z</time>
      </trkpt>
      <trkpt lat="43.52433" lon="7.04855">
        <ele>-2.27</ele>
        <time>2014-08-24T08:40:16Z</time>
      </trkpt>
      <trkpt lat="43.52435" lon="7.04835">
        <ele>-2.27</ele>
        <time>2014-08-24T08:40:31Z</time>
      </trkpt>
      <trkpt lat="43.52437" lon="7.04831">
        <ele>-2.27</ele>
        <time>2014-08-24T08:40:34Z</time>
      </trkpt>
      <trkpt lat="43.52441" lon="7.04817">
        <ele>-2.27</ele>
        <time>2014-08-24T08:40:45Z</time>
      </trkpt>
      <trkpt lat="43.52444" lon="7.04807">
        <ele>-2.27</ele>
        <time>2014-08-24T08:40:52Z</time>
      </trkpt>
      <trkpt lat="43.52448" lon="7.04793">
        <ele>-2.27</ele>
        <time>2014-08-24T08:41:05Z</time>
      </trkpt>
      <trkpt lat="43.52446" lon="7.04782">
        <ele>-2.27</ele>
        <time>2014-08-24T08:41:20Z</time>
      </trkpt>
      <trkpt lat="43.52444" lon="7.04776">
        <ele>-2.27</ele>
        <time>2014-08-24T08:41:32Z</time>
      </trkpt>
      <trkpt lat="43.52441" lon="7.04769">
        <ele>-2.27</ele>
        <time>2014-08-24T08:41:45Z</time>
      </trkpt>
      <trkpt lat="43.52441" lon="7.0476">
        <ele>-2.27</ele>
        <time>2014-08-24T08:41:58Z</time>
      </trkpt>
      <trkpt lat="43.52444" lon="7.04748">
        <ele>-2.27</ele>
        <time>2014-08-24T08:42:08Z</time>
      </trkpt>
      <trkpt lat="43.52446" lon="7.04737">
        <ele>-2.27</ele>
        <time>2014-08-24T08:42:18Z</time>
      </trkpt>
      <trkpt lat="43.52448" lon="7.0473">
        <ele>-2.27</ele>
        <time>2014-08-24T08:42:27Z</time>
      </trkpt>
      <trkpt lat="43.52453" lon="7.04715">
        <ele>-2.27</ele>
        <time>2014-08-24T08:42:42Z</time>
      </trkpt>
      <trkpt lat="43.52456" lon="7.04708">
        <ele>-2.27</ele>
        <time>2014-08-24T08:42:49Z</time>
      </trkpt>
      <trkpt lat="43.52457" lon="7.04705">
        <ele>-2.27</ele>
        <time>2014-08-24T08:42:52Z</time>
      </trkpt>
      <trkpt lat="43.52459" lon="7.04698">
        <ele>-1.79</ele>
        <time>2014-08-24T08:42:57Z</time>
      </trkpt>
      <trkpt lat="43.52461" lon="7.04695">
        <ele>-1.79</ele>
        <time>2014-08-24T08:43:00Z</time>
      </trkpt>
      <trkpt lat="43.52467" lon="7.04683">
        <ele>-1.79</ele>
        <time>2014-08-24T08:43:11Z</time>
      </trkpt>
      <trkpt lat="43.52469" lon="7.04675">
        <ele>-1.79</ele>
        <time>2014-08-24T08:43:19Z</time>
      </trkpt>
      <trkpt lat="43.52468" lon="7.04666">
        <ele>-1.79</ele>
        <time>2014-08-24T08:43:33Z</time>
      </trkpt>
      <trkpt lat="43.52468" lon="7.04662">
        <ele>-1.79</ele>
        <time>2014-08-24T08:43:37Z</time>
      </trkpt>
      <trkpt lat="43.52469" lon="7.04654">
        <ele>-1.3</ele>
        <time>2014-08-24T08:43:43Z</time>
      </trkpt>
      <trkpt lat="43.5247" lon="7.04644">
        <ele>-1.3</ele>
        <time>2014-08-24T08:43:52Z</time>
      </trkpt>
      <trkpt lat="43.52473" lon="7.0463">
        <ele>-1.3</ele>
        <time>2014-08-24T08:44:04Z</time>
      </trkpt>
      <trkpt lat="43.52473" lon="7.04626">
        <ele>-1.3</ele>
        <time>2014-08-24T08:44:08Z</time>
      </trkpt>
      <trkpt lat="43.52474" lon="7.04624">
        <ele>-1.3</ele>
        <time>2014-08-24T08:44:10Z</time>
      </trkpt>
      <trkpt lat="43.52477" lon="7.04611">
        <ele>-1.3</ele>
        <time>2014-08-24T08:44:21Z</time>
      </trkpt>
      <trkpt lat="43.52477" lon="7.04608">
        <ele>-1.3</ele>
        <time>2014-08-24T08:44:24Z</time>
      </trkpt>
      <trkpt lat="43.5248" lon="7.04592">
        <ele>-1.3</ele>
        <time>2014-08-24T08:44:39Z</time>
      </trkpt>
      <trkpt lat="43.52477" lon="7.0458">
        <ele>-1.3</ele>
        <time>2014-08-24T08:44:53Z</time>
      </trkpt>
      <trkpt lat="43.52475" lon="7.04571">
        <ele>-1.3</ele>
        <time>2014-08-24T08:45:04Z</time>
      </trkpt>
      <trkpt lat="43.52473" lon="7.04566">
        <ele>-5.15</ele>
        <time>2014-08-24T08:45:12Z</time>
      </trkpt>
      <trkpt lat="43.52473" lon="7.0456">
        <ele>-2.27</ele>
        <time>2014-08-24T08:45:18Z</time>
      </trkpt>
      <trkpt lat="43.52473" lon="7.0455">
        <ele>-2.27</ele>
        <time>2014-08-24T08:45:30Z</time>
      </trkpt>
      <trkpt lat="43.52472" lon="7.04548">
        <ele>-6.59</ele>
        <time>2014-08-24T08:45:34Z</time>
      </trkpt>
      <trkpt lat="43.52473" lon="7.04547">
        <ele>-2.75</ele>
        <time>2014-08-24T08:45:37Z</time>
      </trkpt>
      <trkpt lat="43.52472" lon="7.04544">
        <ele>-6.59</ele>
        <time>2014-08-24T08:45:42Z</time>
      </trkpt>
      <trkpt lat="43.52472" lon="7.04543">
        <ele>-1.79</ele>
        <time>2014-08-24T08:45:45Z</time>
      </trkpt>
      <trkpt lat="43.52472" lon="7.04542">
        <ele>-10.92</ele>
        <time>2014-08-24T08:45:46Z</time>
      </trkpt>
      <trkpt lat="43.52472" lon="7.04542">
        <ele>-2.75</ele>
        <time>2014-08-24T08:45:47Z</time>
      </trkpt>
      <trkpt lat="43.52472" lon="7.0454">
        <ele>-0.34</ele>
        <time>2014-08-24T08:45:50Z</time>
      </trkpt>
      <trkpt lat="43.52473" lon="7.04537">
        <ele>-1.3</ele>
        <time>2014-08-24T08:45:55Z</time>
      </trkpt>
      <trkpt lat="43.52474" lon="7.04532">
        <ele>-1.3</ele>
        <time>2014-08-24T08:45:59Z</time>
      </trkpt>
      <trkpt lat="43.5248" lon="7.0452">
        <ele>-1.79</ele>
        <time>2014-08-24T08:46:10Z</time>
      </trkpt>
      <trkpt lat="43.52484" lon="7.04503">
        <ele>-1.79</ele>
        <time>2014-08-24T08:46:23Z</time>
      </trkpt>
      <trkpt lat="43.52483" lon="7.04493">
        <ele>-1.79</ele>
        <time>2014-08-24T08:46:32Z</time>
      </trkpt>
      <trkpt lat="43.52483" lon="7.0449">
        <ele>-1.79</ele>
        <time>2014-08-24T08:46:34Z</time>
      </trkpt>
      <trkpt lat="43.52484" lon="7.04481">
        <ele>-1.79</ele>
        <time>2014-08-24T08:46:40Z</time>
      </trkpt>
      <trkpt lat="43.52484" lon="7.04476">
        <ele>-1.79</ele>
        <time>2014-08-24T08:46:43Z</time>
      </trkpt>
      <trkpt lat="43.52485" lon="7.04467">
        <ele>-1.79</ele>
        <time>2014-08-24T08:46:49Z</time>
      </trkpt>
      <trkpt lat="43.52483" lon="7.04453">
        <ele>-1.79</ele>
        <time>2014-08-24T08:46:59Z</time>
      </trkpt>
      <trkpt lat="43.52483" lon="7.04439">
        <ele>-2.27</ele>
        <time>2014-08-24T08:47:08Z</time>
      </trkpt>
      <trkpt lat="43.52479" lon="7.04419">
        <ele>-2.27</ele>
        <time>2014-08-24T08:47:22Z</time>
      </trkpt>
      <trkpt lat="43.52478" lon="7.04416">
        <ele>-2.27</ele>
        <time>2014-08-24T08:47:25Z</time>
      </trkpt>
      <trkpt lat="43.52477" lon="7.04409">
        <ele>-2.27</ele>
        <time>2014-08-24T08:47:30Z</time>
      </trkpt>
      <trkpt lat="43.52476" lon="7.04398">
        <ele>-2.27</ele>
        <time>2014-08-24T08:47:37Z</time>
      </trkpt>
      <trkpt lat="43.52476" lon="7.04393">
        <ele>-2.27</ele>
        <time>2014-08-24T08:47:41Z</time>
      </trkpt>
      <trkpt lat="43.52477" lon="7.04373">
        <ele>-2.27</ele>
        <time>2014-08-24T08:47:54Z</time>
      </trkpt>
      <trkpt lat="43.52474" lon="7.04361">
        <ele>-2.27</ele>
        <time>2014-08-24T08:48:03Z</time>
      </trkpt>
      <trkpt lat="43.52472" lon="7.04357">
        <ele>-2.27</ele>
        <time>2014-08-24T08:48:06Z</time>
      </trkpt>
      <trkpt lat="43.5247" lon="7.0435">
        <ele>-1.79</ele>
        <time>2014-08-24T08:48:11Z</time>
      </trkpt>
      <trkpt lat="43.52468" lon="7.04344">
        <ele>-2.27</ele>
        <time>2014-08-24T08:48:15Z</time>
      </trkpt>
      <trkpt lat="43.52468" lon="7.0434">
        <ele>-1.79</ele>
        <time>2014-08-24T08:48:18Z</time>
      </trkpt>
      <trkpt lat="43.52466" lon="7.04327">
        <ele>-2.27</ele>
        <time>2014-08-24T08:48:27Z</time>
      </trkpt>
      <trkpt lat="43.52462" lon="7.04312">
        <ele>-2.27</ele>
        <time>2014-08-24T08:48:38Z</time>
      </trkpt>
      <trkpt lat="43.52461" lon="7.04305">
        <ele>-1.79</ele>
        <time>2014-08-24T08:48:45Z</time>
      </trkpt>
      <trkpt lat="43.52459" lon="7.04298">
        <ele>-1.79</ele>
        <time>2014-08-24T08:48:50Z</time>
      </trkpt>
      <trkpt lat="43.52458" lon="7.04291">
        <ele>-1.79</ele>
        <time>2014-08-24T08:48:55Z</time>
      </trkpt>
      <trkpt lat="43.52456" lon="7.04282">
        <ele>-1.79</ele>
        <time>2014-08-24T08:49:01Z</time>
      </trkpt>
      <trkpt lat="43.52454" lon="7.04273">
        <ele>-1.79</ele>
        <time>2014-08-24T08:49:07Z</time>
      </trkpt>
      <trkpt lat="43.52453" lon="7.04256">
        <ele>-1.79</ele>
        <time>2014-08-24T08:49:19Z</time>
      </trkpt>
      <trkpt lat="43.52447" lon="7.04234">
        <ele>-1.79</ele>
        <time>2014-08-24T08:49:35Z</time>
      </trkpt>
      <trkpt lat="43.52445" lon="7.04225">
        <ele>-1.79</ele>
        <time>2014-08-24T08:49:41Z</time>
      </trkpt>
      <trkpt lat="43.52443" lon="7.04215">
        <ele>-1.79</ele>
        <time>2014-08-24T08:49:48Z</time>
      </trkpt>
      <trkpt lat="43.52441" lon="7.04199">
        <ele>-1.79</ele>
        <time>2014-08-24T08:49:59Z</time>
      </trkpt>
      <trkpt lat="43.52435" lon="7.04181">
        <ele>-1.79</ele>
        <time>2014-08-24T08:50:12Z</time>
      </trkpt>
      <trkpt lat="43.52435" lon="7.0418">
        <ele>-1.79</ele>
        <time>2014-08-24T08:50:13Z</time>
      </trkpt>
      <trkpt lat="43.52433" lon="7.04171">
        <ele>-1.79</ele>
        <time>2014-08-24T08:50:19Z</time>
      </trkpt>
      <trkpt lat="43.5243" lon="7.0415">
        <ele>-1.79</ele>
        <time>2014-08-24T08:50:33Z</time>
      </trkpt>
      <trkpt lat="43.52424" lon="7.04136">
        <ele>-1.79</ele>
        <time>2014-08-24T08:50:44Z</time>
      </trkpt>
      <trkpt lat="43.52421" lon="7.04128">
        <ele>-1.79</ele>
        <time>2014-08-24T08:50:50Z</time>
      </trkpt>
      <trkpt lat="43.52417" lon="7.04112">
        <ele>-1.79</ele>
        <time>2014-08-24T08:51:01Z</time>
      </trkpt>
      <trkpt lat="43.52412" lon="7.04098">
        <ele>-1.79</ele>
        <time>2014-08-24T08:51:12Z</time>
      </trkpt>
      <trkpt lat="43.52406" lon="7.04086">
        <ele>-1.79</ele>
        <time>2014-08-24T08:51:22Z</time>
      </trkpt>
      <trkpt lat="43.52401" lon="7.04073">
        <ele>-1.79</ele>
        <time>2014-08-24T08:51:32Z</time>
      </trkpt>
      <trkpt lat="43.52399" lon="7.04065">
        <ele>-1.79</ele>
        <time>2014-08-24T08:51:38Z</time>
      </trkpt>
      <trkpt lat="43.52398" lon="7.04061">
        <ele>-1.79</ele>
        <time>2014-08-24T08:51:41Z</time>
      </trkpt>
      <trkpt lat="43.52395" lon="7.04055">
        <ele>-1.79</ele>
        <time>2014-08-24T08:51:46Z</time>
      </trkpt>
      <trkpt lat="43.52389" lon="7.04037">
        <ele>-1.79</ele>
        <time>2014-08-24T08:52:00Z</time>
      </trkpt>
      <trkpt lat="43.52387" lon="7.04032">
        <ele>-6.11</ele>
        <time>2014-08-24T08:52:06Z</time>
      </trkpt>
      <trkpt lat="43.52386" lon="7.0403">
        <ele>-1.3</ele>
        <time>2014-08-24T08:52:08Z</time>
      </trkpt>
      <trkpt lat="43.52386" lon="7.04029">
        <ele>-1.3</ele>
        <time>2014-08-24T08:52:09Z</time>
      </trkpt>
      <trkpt lat="43.52382" lon="7.04022">
        <ele>-1.3</ele>
        <time>2014-08-24T08:52:24Z</time>
      </trkpt>
      <trkpt lat="43.52379" lon="7.04018">
        <ele>-2.75</ele>
        <time>2014-08-24T08:52:40Z</time>
      </trkpt>
      <trkpt lat="43.52375" lon="7.04012">
        <ele>-2.75</ele>
        <time>2014-08-24T08:52:56Z</time>
      </trkpt>
      <trkpt lat="43.5237" lon="7.04006">
        <ele>-2.75</ele>
        <time>2014-08-24T08:53:14Z</time>
      </trkpt>
      <trkpt lat="43.52366" lon="7.04">
        <ele>-2.75</ele>
        <time>2014-08-24T08:53:30Z</time>
      </trkpt>
      <trkpt lat="43.52361" lon="7.03992">
        <ele>-2.75</ele>
        <time>2014-08-24T08:53:49Z</time>
      </trkpt>
      <trkpt lat="43.52359" lon="7.03976">
        <ele>-2.75</ele>
        <time>2014-08-24T08:54:04Z</time>
      </trkpt>
      <trkpt lat="43.52358" lon="7.03955">
        <ele>-2.75</ele>
        <time>2014-08-24T08:54:20Z</time>
      </trkpt>
      <trkpt lat="43.52355" lon="7.03942">
        <ele>-2.75</ele>
        <time>2014-08-24T08:54:30Z</time>
      </trkpt>
      <trkpt lat="43.52354" lon="7.03922">
        <ele>-2.75</ele>
        <time>2014-08-24T08:54:45Z</time>
      </trkpt>
      <trkpt lat="43.52353" lon="7.03914">
        <ele>-2.75</ele>
        <time>2014-08-24T08:54:51Z</time>
      </trkpt>
      <trkpt lat="43.5235" lon="7.03893">
        <ele>-2.75</ele>
        <time>2014-08-24T08:55:06Z</time>
      </trkpt>
      <trkpt lat="43.52346" lon="7.03883">
        <ele>-2.75</ele>
        <time>2014-08-24T08:55:14Z</time>
      </trkpt>
      <trkpt lat="43.52342" lon="7.03863">
        <ele>-2.75</ele>
        <time>2014-08-24T08:55:28Z</time>
      </trkpt>
      <trkpt lat="43.5234" lon="7.03845">
        <ele>-2.75</ele>
        <time>2014-08-24T08:55:42Z</time>
      </trkpt>
      <trkpt lat="43.52339" lon="7.03838">
        <ele>-2.75</ele>
        <time>2014-08-24T08:55:48Z</time>
      </trkpt>
      <trkpt lat="43.52336" lon="7.03828">
        <ele>-0.82</ele>
        <time>2014-08-24T08:55:56Z</time>
      </trkpt>
      <trkpt lat="43.52336" lon="7.03822">
        <ele>-0.82</ele>
        <time>2014-08-24T08:56:09Z</time>
      </trkpt>
      <trkpt lat="43.52341" lon="7.03826">
        <ele>-0.82</ele>
        <time>2014-08-24T08:56:21Z</time>
      </trkpt>
      <trkpt lat="43.52345" lon="7.03832">
        <ele>-0.82</ele>
        <time>2014-08-24T08:56:36Z</time>
      </trkpt>
      <trkpt lat="43.52352" lon="7.03826">
        <ele>-0.82</ele>
        <time>2014-08-24T08:56:53Z</time>
      </trkpt>
      <trkpt lat="43.52356" lon="7.03823">
        <ele>-0.82</ele>
        <time>2014-08-24T08:57:07Z</time>
      </trkpt>
      <trkpt lat="43.52362" lon="7.03818">
        <ele>-0.82</ele>
        <time>2014-08-24T08:57:24Z</time>
      </trkpt>
      <trkpt lat="43.52361" lon="7.03804">
        <ele>-2.27</ele>
        <time>2014-08-24T08:57:41Z</time>
      </trkpt>
      <trkpt lat="43.5236" lon="7.03803">
        <ele>-2.27</ele>
        <time>2014-08-24T08:57:42Z</time>
      </trkpt>
      <trkpt lat="43.52357" lon="7.03796">
        <ele>-2.27</ele>
        <time>2014-08-24T08:57:48Z</time>
      </trkpt>
      <trkpt lat="43.52352" lon="7.03792">
        <ele>-2.27</ele>
        <time>2014-08-24T08:57:54Z</time>
      </trkpt>
      <trkpt lat="43.52349" lon="7.0379">
        <ele>-2.27</ele>
        <time>2014-08-24T08:57:57Z</time>
      </trkpt>
      <trkpt lat="43.52341" lon="7.03779">
        <ele>-2.27</ele>
        <time>2014-08-24T08:58:06Z</time>
      </trkpt>
      <trkpt lat="43.52335" lon="7.03763">
        <ele>-2.27</ele>
        <time>2014-08-24T08:58:18Z</time>
      </trkpt>
      <trkpt lat="43.52334" lon="7.0376">
        <ele>-2.27</ele>
        <time>2014-08-24T08:58:20Z</time>
      </trkpt>
      <trkpt lat="43.52333" lon="7.03755">
        <ele>-2.27</ele>
        <time>2014-08-24T08:58:23Z</time>
      </trkpt>
      <trkpt lat="43.52331" lon="7.03746">
        <ele>-2.27</ele>
        <time>2014-08-24T08:58:29Z</time>
      </trkpt>
      <trkpt lat="43.52327" lon="7.03727">
        <ele>-2.27</ele>
        <time>2014-08-24T08:58:42Z</time>
      </trkpt>
      <trkpt lat="43.52325" lon="7.03724">
        <ele>-2.27</ele>
        <time>2014-08-24T08:58:44Z</time>
      </trkpt>
      <trkpt lat="43.52321" lon="7.03712">
        <ele>-2.27</ele>
        <time>2014-08-24T08:58:52Z</time>
      </trkpt>
      <trkpt lat="43.52316" lon="7.03694">
        <ele>-2.27</ele>
        <time>2014-08-24T08:59:06Z</time>
      </trkpt>
      <trkpt lat="43.52312" lon="7.03686">
        <ele>-2.27</ele>
        <time>2014-08-24T08:59:17Z</time>
      </trkpt>
      <trkpt lat="43.5231" lon="7.03682">
        <ele>-2.27</ele>
        <time>2014-08-24T08:59:20Z</time>
      </trkpt>
      <trkpt lat="43.52309" lon="7.03675">
        <ele>-2.27</ele>
        <time>2014-08-24T08:59:25Z</time>
      </trkpt>
      <trkpt lat="43.52304" lon="7.03659">
        <ele>-2.27</ele>
        <time>2014-08-24T08:59:37Z</time>
      </trkpt>
      <trkpt lat="43.523" lon="7.03655">
        <ele>-2.27</ele>
        <time>2014-08-24T08:59:41Z</time>
      </trkpt>
      <trkpt lat="43.52286" lon="7.03649">
        <ele>-2.27</ele>
        <time>2014-08-24T08:59:56Z</time>
      </trkpt>
      <trkpt lat="43.52271" lon="7.03644">
        <ele>-2.27</ele>
        <time>2014-08-24T09:00:12Z</time>
      </trkpt>
      <trkpt lat="43.52268" lon="7.03643">
        <ele>-1.79</ele>
        <time>2014-08-24T09:00:14Z</time>
      </trkpt>
      <trkpt lat="43.52257" lon="7.03641">
        <ele>-1.79</ele>
        <time>2014-08-24T09:00:28Z</time>
      </trkpt>
      <trkpt lat="43.52246" lon="7.03631">
        <ele>-1.79</ele>
        <time>2014-08-24T09:00:47Z</time>
      </trkpt>
      <trkpt lat="43.52245" lon="7.0363">
        <ele>-1.79</ele>
        <time>2014-08-24T09:00:48Z</time>
      </trkpt>
      <trkpt lat="43.52232" lon="7.03618">
        <ele>-1.79</ele>
        <time>2014-08-24T09:01:06Z</time>
      </trkpt>
      <trkpt lat="43.52231" lon="7.03615">
        <ele>-1.79</ele>
        <time>2014-08-24T09:01:08Z</time>
      </trkpt>
      <trkpt lat="43.52225" lon="7.03596">
        <ele>-1.79</ele>
        <time>2014-08-24T09:01:24Z</time>
      </trkpt>
      <trkpt lat="43.52224" lon="7.03575">
        <ele>-1.79</ele>
        <time>2014-08-24T09:01:39Z</time>
      </trkpt>
      <trkpt lat="43.52224" lon="7.03557">
        <ele>-2.27</ele>
        <time>2014-08-24T09:01:54Z</time>
      </trkpt>
      <trkpt lat="43.52226" lon="7.03539">
        <ele>-2.27</ele>
        <time>2014-08-24T09:02:06Z</time>
      </trkpt>
      <trkpt lat="43.5223" lon="7.03516">
        <ele>-2.27</ele>
        <time>2014-08-24T09:02:22Z</time>
      </trkpt>
      <trkpt lat="43.5223" lon="7.03503">
        <ele>-2.27</ele>
        <time>2014-08-24T09:02:35Z</time>
      </trkpt>
      <trkpt lat="43.52227" lon="7.03497">
        <ele>-2.27</ele>
        <time>2014-08-24T09:02:49Z</time>
      </trkpt>
      <trkpt lat="43.52227" lon="7.03496">
        <ele>-2.27</ele>
        <time>2014-08-24T09:03:04Z</time>
      </trkpt>
      <trkpt lat="43.52227" lon="7.03495">
        <ele>-2.27</ele>
        <time>2014-08-24T09:03:23Z</time>
      </trkpt>
      <trkpt lat="43.52225" lon="7.0349">
        <ele>-2.75</ele>
        <time>2014-08-24T09:03:43Z</time>
      </trkpt>
      <trkpt lat="43.52223" lon="7.03487">
        <ele>-1.79</ele>
        <time>2014-08-24T09:03:58Z</time>
      </trkpt>
      <trkpt lat="43.52223" lon="7.03487">
        <ele>-1.3</ele>
        <time>2014-08-24T09:04:40Z</time>
      </trkpt>
      <trkpt lat="43.52223" lon="7.03487">
        <ele>-1.3</ele>
        <time>2014-08-24T09:05:14Z</time>
      </trkpt>
      <trkpt lat="43.52223" lon="7.03487">
        <ele>-15.24</ele>
        <time>2014-08-24T09:05:57Z</time>
      </trkpt>
      <trkpt lat="43.52223" lon="7.03487">
        <ele>-13.32</ele>
        <time>2014-08-24T09:05:58Z</time>
      </trkpt>
      <trkpt lat="43.52223" lon="7.03486">
        <ele>0.62</ele>
        <time>2014-08-24T09:05:59Z</time>
      </trkpt>
      <trkpt lat="43.52223" lon="7.03486">
        <ele>0.62</ele>
        <time>2014-08-24T09:06:00Z</time>
      </trkpt>
      <trkpt lat="43.52223" lon="7.03486">
        <ele>-0.82</ele>
        <time>2014-08-24T09:06:04Z</time>
      </trkpt>
      <trkpt lat="43.52223" lon="7.03487">
        <ele>-2.75</ele>
        <time>2014-08-24T09:06:09Z</time>
      </trkpt>
      <trkpt lat="43.52223" lon="7.03487">
        <ele>-0.82</ele>
        <time>2014-08-24T09:06:27Z</time>
      </trkpt>
      <trkpt lat="43.52222" lon="7.03487">
        <ele>-2.27</ele>
        <time>2014-08-24T09:06:36Z</time>
      </trkpt>
    </trkseg>
  </trk>
</gpx>